<?xml version="1.0" encoding="UTF-8" standalone="no" ?>
<gpx xmlns="http://www.topografix.com/GPX/1/1" xmlns:xsi="http://www.w3.org/2001/XMLSchema-instance" xsi:schemaLocation="http://www.topografix.com/GPX/1/1 http://www.topografix.com/GPX/1/1/gpx.xsd" version="1.1" creator="VisuGPX - https://www.visugpx.com">
  <metadata>
    <name>LES ARCS FORET DE COLLOBRERE</name>
    <desc><![CDATA[Circuit dans la forêt de Collobrère au Arcs. Départ du parking situé après le Pont d'Aille au niveau de la barrière de la piste des bauquières que nous empruntons en longeant l'Argens. Nous empruntons ensuite un chemin très pentu qui monte vers le col de Cabredor (difficile). Plus loin, nous rattrapons la piste bauquières et nous nous dirigeons vers le sommet de Castel Diaou. Après le Frasco, nous descendons une forte pente entre les points 143 et 91 (difficile) puis nous longeons le ruisseau de la Blaquière et nous empruntons à nouveau la piste des Bauquières qui nous ramène à notre point de départ. Randonnée difficile.]]></desc>
  </metadata>
  <trk>
    <name><![CDATA[Tracé actuel: 20 JAN 2017 08:26]]></name>
    <trkseg>
      <trkpt lat="43.42987" lon="6.51167">
        <ele>-88.78</ele>
        <time>2017-01-20T07:26:02Z</time>
      </trkpt>
      <trkpt lat="43.42988" lon="6.51169">
        <ele>-88.3</ele>
        <time>2017-01-20T07:26:03Z</time>
      </trkpt>
      <trkpt lat="43.4299" lon="6.51171">
        <ele>-88.3</ele>
        <time>2017-01-20T07:26:04Z</time>
      </trkpt>
      <trkpt lat="43.42999" lon="6.51187">
        <ele>-87.34</ele>
        <time>2017-01-20T07:26:23Z</time>
      </trkpt>
      <trkpt lat="43.42995" lon="6.51174">
        <ele>-88.3</ele>
        <time>2017-01-20T07:26:41Z</time>
      </trkpt>
      <trkpt lat="43.42988" lon="6.51168">
        <ele>-87.82</ele>
        <time>2017-01-20T07:27:01Z</time>
      </trkpt>
      <trkpt lat="43.42984" lon="6.51158">
        <ele>-83.02</ele>
        <time>2017-01-20T07:27:19Z</time>
      </trkpt>
      <trkpt lat="43.42985" lon="6.51157">
        <ele>-78.21</ele>
        <time>2017-01-20T07:27:20Z</time>
      </trkpt>
      <trkpt lat="43.42985" lon="6.51157">
        <ele>-73.88</ele>
        <time>2017-01-20T07:27:21Z</time>
      </trkpt>
      <trkpt lat="43.42985" lon="6.51158">
        <ele>-68.12</ele>
        <time>2017-01-20T07:27:22Z</time>
      </trkpt>
      <trkpt lat="43.42985" lon="6.51158">
        <ele>-65.23</ele>
        <time>2017-01-20T07:27:23Z</time>
      </trkpt>
      <trkpt lat="43.42985" lon="6.51159">
        <ele>-60.91</ele>
        <time>2017-01-20T07:27:24Z</time>
      </trkpt>
      <trkpt lat="43.42986" lon="6.51159">
        <ele>-57.54</ele>
        <time>2017-01-20T07:27:25Z</time>
      </trkpt>
      <trkpt lat="43.42986" lon="6.51159">
        <ele>-53.7</ele>
        <time>2017-01-20T07:27:26Z</time>
      </trkpt>
      <trkpt lat="43.42986" lon="6.51159">
        <ele>-50.33</ele>
        <time>2017-01-20T07:27:27Z</time>
      </trkpt>
      <trkpt lat="43.42986" lon="6.5116">
        <ele>-46.49</ele>
        <time>2017-01-20T07:27:28Z</time>
      </trkpt>
      <trkpt lat="43.42987" lon="6.51161">
        <ele>-43.12</ele>
        <time>2017-01-20T07:27:29Z</time>
      </trkpt>
      <trkpt lat="43.42987" lon="6.51162">
        <ele>-40.24</ele>
        <time>2017-01-20T07:27:30Z</time>
      </trkpt>
      <trkpt lat="43.42988" lon="6.51163">
        <ele>-36.87</ele>
        <time>2017-01-20T07:27:31Z</time>
      </trkpt>
      <trkpt lat="43.42989" lon="6.51164">
        <ele>-33.99</ele>
        <time>2017-01-20T07:27:32Z</time>
      </trkpt>
      <trkpt lat="43.4299" lon="6.51165">
        <ele>-28.22</ele>
        <time>2017-01-20T07:27:34Z</time>
      </trkpt>
      <trkpt lat="43.42989" lon="6.51166">
        <ele>-22.93</ele>
        <time>2017-01-20T07:27:36Z</time>
      </trkpt>
      <trkpt lat="43.4299" lon="6.51166">
        <ele>-18.61</ele>
        <time>2017-01-20T07:27:38Z</time>
      </trkpt>
      <trkpt lat="43.4299" lon="6.51166">
        <ele>-13.8</ele>
        <time>2017-01-20T07:27:40Z</time>
      </trkpt>
      <trkpt lat="43.42991" lon="6.51166">
        <ele>-9.48</ele>
        <time>2017-01-20T07:27:42Z</time>
      </trkpt>
      <trkpt lat="43.42993" lon="6.51167">
        <ele>-5.15</ele>
        <time>2017-01-20T07:27:44Z</time>
      </trkpt>
      <trkpt lat="43.42993" lon="6.51167">
        <ele>-1.3</ele>
        <time>2017-01-20T07:27:46Z</time>
      </trkpt>
      <trkpt lat="43.42992" lon="6.51166">
        <ele>2.06</ele>
        <time>2017-01-20T07:27:48Z</time>
      </trkpt>
      <trkpt lat="43.42993" lon="6.51166">
        <ele>5.42</ele>
        <time>2017-01-20T07:27:50Z</time>
      </trkpt>
      <trkpt lat="43.42993" lon="6.51166">
        <ele>8.31</ele>
        <time>2017-01-20T07:27:52Z</time>
      </trkpt>
      <trkpt lat="43.42992" lon="6.51166">
        <ele>12.63</ele>
        <time>2017-01-20T07:27:55Z</time>
      </trkpt>
      <trkpt lat="43.42992" lon="6.51165">
        <ele>16.48</ele>
        <time>2017-01-20T07:27:58Z</time>
      </trkpt>
      <trkpt lat="43.42992" lon="6.51166">
        <ele>19.84</ele>
        <time>2017-01-20T07:28:01Z</time>
      </trkpt>
      <trkpt lat="43.42991" lon="6.51165">
        <ele>23.21</ele>
        <time>2017-01-20T07:28:04Z</time>
      </trkpt>
      <trkpt lat="43.42991" lon="6.51166">
        <ele>26.09</ele>
        <time>2017-01-20T07:28:07Z</time>
      </trkpt>
      <trkpt lat="43.42991" lon="6.51164">
        <ele>29.46</ele>
        <time>2017-01-20T07:28:11Z</time>
      </trkpt>
      <trkpt lat="43.42991" lon="6.51165">
        <ele>32.82</ele>
        <time>2017-01-20T07:28:15Z</time>
      </trkpt>
      <trkpt lat="43.42993" lon="6.51167">
        <ele>36.19</ele>
        <time>2017-01-20T07:28:20Z</time>
      </trkpt>
      <trkpt lat="43.42993" lon="6.51167">
        <ele>39.55</ele>
        <time>2017-01-20T07:28:26Z</time>
      </trkpt>
      <trkpt lat="43.42994" lon="6.51169">
        <ele>42.44</ele>
        <time>2017-01-20T07:28:33Z</time>
      </trkpt>
      <trkpt lat="43.42994" lon="6.51171">
        <ele>45.32</ele>
        <time>2017-01-20T07:28:43Z</time>
      </trkpt>
      <trkpt lat="43.42994" lon="6.51178">
        <ele>47.72</ele>
        <time>2017-01-20T07:28:55Z</time>
      </trkpt>
      <trkpt lat="43.42989" lon="6.51191">
        <ele>48.68</ele>
        <time>2017-01-20T07:29:06Z</time>
      </trkpt>
      <trkpt lat="43.42982" lon="6.51204">
        <ele>48.2</ele>
        <time>2017-01-20T07:29:16Z</time>
      </trkpt>
      <trkpt lat="43.42978" lon="6.51209">
        <ele>48.68</ele>
        <time>2017-01-20T07:29:20Z</time>
      </trkpt>
      <trkpt lat="43.42976" lon="6.5121">
        <ele>48.2</ele>
        <time>2017-01-20T07:29:23Z</time>
      </trkpt>
      <trkpt lat="43.42971" lon="6.51218">
        <ele>48.68</ele>
        <time>2017-01-20T07:29:29Z</time>
      </trkpt>
      <trkpt lat="43.42968" lon="6.51224">
        <ele>48.68</ele>
        <time>2017-01-20T07:29:34Z</time>
      </trkpt>
      <trkpt lat="43.42962" lon="6.51249">
        <ele>49.16</ele>
        <time>2017-01-20T07:29:46Z</time>
      </trkpt>
      <trkpt lat="43.42961" lon="6.51254">
        <ele>49.16</ele>
        <time>2017-01-20T07:29:50Z</time>
      </trkpt>
      <trkpt lat="43.42962" lon="6.51258">
        <ele>49.16</ele>
        <time>2017-01-20T07:29:52Z</time>
      </trkpt>
      <trkpt lat="43.42961" lon="6.51271">
        <ele>49.65</ele>
        <time>2017-01-20T07:29:59Z</time>
      </trkpt>
      <trkpt lat="43.42953" lon="6.51291">
        <ele>49.16</ele>
        <time>2017-01-20T07:30:13Z</time>
      </trkpt>
      <trkpt lat="43.4295" lon="6.51298">
        <ele>49.16</ele>
        <time>2017-01-20T07:30:18Z</time>
      </trkpt>
      <trkpt lat="43.42943" lon="6.5132">
        <ele>48.68</ele>
        <time>2017-01-20T07:30:31Z</time>
      </trkpt>
      <trkpt lat="43.42939" lon="6.51332">
        <ele>48.68</ele>
        <time>2017-01-20T07:30:38Z</time>
      </trkpt>
      <trkpt lat="43.42932" lon="6.5135">
        <ele>48.2</ele>
        <time>2017-01-20T07:30:49Z</time>
      </trkpt>
      <trkpt lat="43.42924" lon="6.5137">
        <ele>47.72</ele>
        <time>2017-01-20T07:31:01Z</time>
      </trkpt>
      <trkpt lat="43.42915" lon="6.51392">
        <ele>47.72</ele>
        <time>2017-01-20T07:31:14Z</time>
      </trkpt>
      <trkpt lat="43.42915" lon="6.51394">
        <ele>47.72</ele>
        <time>2017-01-20T07:31:16Z</time>
      </trkpt>
      <trkpt lat="43.42903" lon="6.51416">
        <ele>47.72</ele>
        <time>2017-01-20T07:31:27Z</time>
      </trkpt>
      <trkpt lat="43.42902" lon="6.5143">
        <ele>47.72</ele>
        <time>2017-01-20T07:31:37Z</time>
      </trkpt>
      <trkpt lat="43.42907" lon="6.51444">
        <ele>47.24</ele>
        <time>2017-01-20T07:31:44Z</time>
      </trkpt>
      <trkpt lat="43.42908" lon="6.51448">
        <ele>46.76</ele>
        <time>2017-01-20T07:31:46Z</time>
      </trkpt>
      <trkpt lat="43.4291" lon="6.51459">
        <ele>46.28</ele>
        <time>2017-01-20T07:31:52Z</time>
      </trkpt>
      <trkpt lat="43.42915" lon="6.51484">
        <ele>45.32</ele>
        <time>2017-01-20T07:32:07Z</time>
      </trkpt>
      <trkpt lat="43.42918" lon="6.51505">
        <ele>44.84</ele>
        <time>2017-01-20T07:32:20Z</time>
      </trkpt>
      <trkpt lat="43.42913" lon="6.51527">
        <ele>44.36</ele>
        <time>2017-01-20T07:32:32Z</time>
      </trkpt>
      <trkpt lat="43.42905" lon="6.51548">
        <ele>43.4</ele>
        <time>2017-01-20T07:32:45Z</time>
      </trkpt>
      <trkpt lat="43.42897" lon="6.51561">
        <ele>42.92</ele>
        <time>2017-01-20T07:32:53Z</time>
      </trkpt>
      <trkpt lat="43.42888" lon="6.5158">
        <ele>41.95</ele>
        <time>2017-01-20T07:33:05Z</time>
      </trkpt>
      <trkpt lat="43.42886" lon="6.51586">
        <ele>41.47</ele>
        <time>2017-01-20T07:33:09Z</time>
      </trkpt>
      <trkpt lat="43.42874" lon="6.51604">
        <ele>41.47</ele>
        <time>2017-01-20T07:33:22Z</time>
      </trkpt>
      <trkpt lat="43.42862" lon="6.51622">
        <ele>40.03</ele>
        <time>2017-01-20T07:33:34Z</time>
      </trkpt>
      <trkpt lat="43.42854" lon="6.51645">
        <ele>39.55</ele>
        <time>2017-01-20T07:33:49Z</time>
      </trkpt>
      <trkpt lat="43.42854" lon="6.51648">
        <ele>39.55</ele>
        <time>2017-01-20T07:33:51Z</time>
      </trkpt>
      <trkpt lat="43.42854" lon="6.5167">
        <ele>39.07</ele>
        <time>2017-01-20T07:34:04Z</time>
      </trkpt>
      <trkpt lat="43.42856" lon="6.51678">
        <ele>39.07</ele>
        <time>2017-01-20T07:34:09Z</time>
      </trkpt>
      <trkpt lat="43.42865" lon="6.51699">
        <ele>38.11</ele>
        <time>2017-01-20T07:34:22Z</time>
      </trkpt>
      <trkpt lat="43.42868" lon="6.51704">
        <ele>38.11</ele>
        <time>2017-01-20T07:34:26Z</time>
      </trkpt>
      <trkpt lat="43.42879" lon="6.51722">
        <ele>37.63</ele>
        <time>2017-01-20T07:34:39Z</time>
      </trkpt>
      <trkpt lat="43.42881" lon="6.51728">
        <ele>37.63</ele>
        <time>2017-01-20T07:34:42Z</time>
      </trkpt>
      <trkpt lat="43.42885" lon="6.51748">
        <ele>37.15</ele>
        <time>2017-01-20T07:34:57Z</time>
      </trkpt>
      <trkpt lat="43.42888" lon="6.51771">
        <ele>37.15</ele>
        <time>2017-01-20T07:35:11Z</time>
      </trkpt>
      <trkpt lat="43.4289" lon="6.51801">
        <ele>37.63</ele>
        <time>2017-01-20T07:35:26Z</time>
      </trkpt>
      <trkpt lat="43.4289" lon="6.51809">
        <ele>38.11</ele>
        <time>2017-01-20T07:35:30Z</time>
      </trkpt>
      <trkpt lat="43.42889" lon="6.51822">
        <ele>38.11</ele>
        <time>2017-01-20T07:35:36Z</time>
      </trkpt>
      <trkpt lat="43.42888" lon="6.51829">
        <ele>38.11</ele>
        <time>2017-01-20T07:35:39Z</time>
      </trkpt>
      <trkpt lat="43.4289" lon="6.51839">
        <ele>37.63</ele>
        <time>2017-01-20T07:35:52Z</time>
      </trkpt>
      <trkpt lat="43.42891" lon="6.51843">
        <ele>37.63</ele>
        <time>2017-01-20T07:35:55Z</time>
      </trkpt>
      <trkpt lat="43.42891" lon="6.51851">
        <ele>37.15</ele>
        <time>2017-01-20T07:35:59Z</time>
      </trkpt>
      <trkpt lat="43.42892" lon="6.51872">
        <ele>36.19</ele>
        <time>2017-01-20T07:36:11Z</time>
      </trkpt>
      <trkpt lat="43.42894" lon="6.51896">
        <ele>35.23</ele>
        <time>2017-01-20T07:36:24Z</time>
      </trkpt>
      <trkpt lat="43.42898" lon="6.51918">
        <ele>34.26</ele>
        <time>2017-01-20T07:36:35Z</time>
      </trkpt>
      <trkpt lat="43.42899" lon="6.51922">
        <ele>33.78</ele>
        <time>2017-01-20T07:36:37Z</time>
      </trkpt>
      <trkpt lat="43.42902" lon="6.51933">
        <ele>33.3</ele>
        <time>2017-01-20T07:36:47Z</time>
      </trkpt>
      <trkpt lat="43.42904" lon="6.5194">
        <ele>33.3</ele>
        <time>2017-01-20T07:36:51Z</time>
      </trkpt>
      <trkpt lat="43.42912" lon="6.51968">
        <ele>31.38</ele>
        <time>2017-01-20T07:37:07Z</time>
      </trkpt>
      <trkpt lat="43.42913" lon="6.5197">
        <ele>31.38</ele>
        <time>2017-01-20T07:37:08Z</time>
      </trkpt>
      <trkpt lat="43.4292" lon="6.51991">
        <ele>29.94</ele>
        <time>2017-01-20T07:37:21Z</time>
      </trkpt>
      <trkpt lat="43.42923" lon="6.51998">
        <ele>29.46</ele>
        <time>2017-01-20T07:37:26Z</time>
      </trkpt>
      <trkpt lat="43.42928" lon="6.52007">
        <ele>29.46</ele>
        <time>2017-01-20T07:37:38Z</time>
      </trkpt>
      <trkpt lat="43.42927" lon="6.52009">
        <ele>28.98</ele>
        <time>2017-01-20T07:37:43Z</time>
      </trkpt>
      <trkpt lat="43.42928" lon="6.52019">
        <ele>28.98</ele>
        <time>2017-01-20T07:37:48Z</time>
      </trkpt>
      <trkpt lat="43.4293" lon="6.52027">
        <ele>28.98</ele>
        <time>2017-01-20T07:37:52Z</time>
      </trkpt>
      <trkpt lat="43.42936" lon="6.52054">
        <ele>28.5</ele>
        <time>2017-01-20T07:38:08Z</time>
      </trkpt>
      <trkpt lat="43.42942" lon="6.52082">
        <ele>28.5</ele>
        <time>2017-01-20T07:38:23Z</time>
      </trkpt>
      <trkpt lat="43.42943" lon="6.52087">
        <ele>28.98</ele>
        <time>2017-01-20T07:38:27Z</time>
      </trkpt>
      <trkpt lat="43.42944" lon="6.52094">
        <ele>28.98</ele>
        <time>2017-01-20T07:38:31Z</time>
      </trkpt>
      <trkpt lat="43.42944" lon="6.52097">
        <ele>27.53</ele>
        <time>2017-01-20T07:38:33Z</time>
      </trkpt>
      <trkpt lat="43.42944" lon="6.52099">
        <ele>30.9</ele>
        <time>2017-01-20T07:38:34Z</time>
      </trkpt>
      <trkpt lat="43.42944" lon="6.52101">
        <ele>29.94</ele>
        <time>2017-01-20T07:38:36Z</time>
      </trkpt>
      <trkpt lat="43.42954" lon="6.52127">
        <ele>28.5</ele>
        <time>2017-01-20T07:38:51Z</time>
      </trkpt>
      <trkpt lat="43.42959" lon="6.52141">
        <ele>28.5</ele>
        <time>2017-01-20T07:38:59Z</time>
      </trkpt>
      <trkpt lat="43.42962" lon="6.52153">
        <ele>28.02</ele>
        <time>2017-01-20T07:39:05Z</time>
      </trkpt>
      <trkpt lat="43.42967" lon="6.52156">
        <ele>28.02</ele>
        <time>2017-01-20T07:39:21Z</time>
      </trkpt>
      <trkpt lat="43.42967" lon="6.5216">
        <ele>28.02</ele>
        <time>2017-01-20T07:39:34Z</time>
      </trkpt>
      <trkpt lat="43.42971" lon="6.52188">
        <ele>28.02</ele>
        <time>2017-01-20T07:39:49Z</time>
      </trkpt>
      <trkpt lat="43.42977" lon="6.52213">
        <ele>28.02</ele>
        <time>2017-01-20T07:40:04Z</time>
      </trkpt>
      <trkpt lat="43.42981" lon="6.52238">
        <ele>28.02</ele>
        <time>2017-01-20T07:40:18Z</time>
      </trkpt>
      <trkpt lat="43.4298" lon="6.5224">
        <ele>28.02</ele>
        <time>2017-01-20T07:40:19Z</time>
      </trkpt>
      <trkpt lat="43.4297" lon="6.52268">
        <ele>27.53</ele>
        <time>2017-01-20T07:40:33Z</time>
      </trkpt>
      <trkpt lat="43.42958" lon="6.52289">
        <ele>27.53</ele>
        <time>2017-01-20T07:40:46Z</time>
      </trkpt>
      <trkpt lat="43.42952" lon="6.52299">
        <ele>28.02</ele>
        <time>2017-01-20T07:40:54Z</time>
      </trkpt>
      <trkpt lat="43.4295" lon="6.52302">
        <ele>28.02</ele>
        <time>2017-01-20T07:40:56Z</time>
      </trkpt>
      <trkpt lat="43.42949" lon="6.52304">
        <ele>28.02</ele>
        <time>2017-01-20T07:40:58Z</time>
      </trkpt>
      <trkpt lat="43.42934" lon="6.52321">
        <ele>31.38</ele>
        <time>2017-01-20T07:41:12Z</time>
      </trkpt>
      <trkpt lat="43.42933" lon="6.52322">
        <ele>28.5</ele>
        <time>2017-01-20T07:41:13Z</time>
      </trkpt>
      <trkpt lat="43.42931" lon="6.52323">
        <ele>25.13</ele>
        <time>2017-01-20T07:41:15Z</time>
      </trkpt>
      <trkpt lat="43.4293" lon="6.52324">
        <ele>31.38</ele>
        <time>2017-01-20T07:41:16Z</time>
      </trkpt>
      <trkpt lat="43.42928" lon="6.52324">
        <ele>28.02</ele>
        <time>2017-01-20T07:41:17Z</time>
      </trkpt>
      <trkpt lat="43.42926" lon="6.52324">
        <ele>31.38</ele>
        <time>2017-01-20T07:41:19Z</time>
      </trkpt>
      <trkpt lat="43.42925" lon="6.52324">
        <ele>27.53</ele>
        <time>2017-01-20T07:41:20Z</time>
      </trkpt>
      <trkpt lat="43.4292" lon="6.52324">
        <ele>28.5</ele>
        <time>2017-01-20T07:41:23Z</time>
      </trkpt>
      <trkpt lat="43.42905" lon="6.52318">
        <ele>27.05</ele>
        <time>2017-01-20T07:41:35Z</time>
      </trkpt>
      <trkpt lat="43.42903" lon="6.5232">
        <ele>27.05</ele>
        <time>2017-01-20T07:41:37Z</time>
      </trkpt>
      <trkpt lat="43.42898" lon="6.52319">
        <ele>27.05</ele>
        <time>2017-01-20T07:41:41Z</time>
      </trkpt>
      <trkpt lat="43.42883" lon="6.52333">
        <ele>26.57</ele>
        <time>2017-01-20T07:41:55Z</time>
      </trkpt>
      <trkpt lat="43.42867" lon="6.52344">
        <ele>26.57</ele>
        <time>2017-01-20T07:42:07Z</time>
      </trkpt>
      <trkpt lat="43.42857" lon="6.52349">
        <ele>26.09</ele>
        <time>2017-01-20T07:42:16Z</time>
      </trkpt>
      <trkpt lat="43.4285" lon="6.52358">
        <ele>27.53</ele>
        <time>2017-01-20T07:42:30Z</time>
      </trkpt>
      <trkpt lat="43.4285" lon="6.52358">
        <ele>27.53</ele>
        <time>2017-01-20T07:42:49Z</time>
      </trkpt>
      <trkpt lat="43.4285" lon="6.5236">
        <ele>27.53</ele>
        <time>2017-01-20T07:42:57Z</time>
      </trkpt>
      <trkpt lat="43.42852" lon="6.5236">
        <ele>27.05</ele>
        <time>2017-01-20T07:43:08Z</time>
      </trkpt>
      <trkpt lat="43.42852" lon="6.52358">
        <ele>27.05</ele>
        <time>2017-01-20T07:43:28Z</time>
      </trkpt>
      <trkpt lat="43.42851" lon="6.52358">
        <ele>27.05</ele>
        <time>2017-01-20T07:43:40Z</time>
      </trkpt>
      <trkpt lat="43.42851" lon="6.52352">
        <ele>26.57</ele>
        <time>2017-01-20T07:43:48Z</time>
      </trkpt>
      <trkpt lat="43.42853" lon="6.5236">
        <ele>26.57</ele>
        <time>2017-01-20T07:43:51Z</time>
      </trkpt>
      <trkpt lat="43.42854" lon="6.52368">
        <ele>26.57</ele>
        <time>2017-01-20T07:43:59Z</time>
      </trkpt>
      <trkpt lat="43.4286" lon="6.52376">
        <ele>26.57</ele>
        <time>2017-01-20T07:44:06Z</time>
      </trkpt>
      <trkpt lat="43.42868" lon="6.52383">
        <ele>26.09</ele>
        <time>2017-01-20T07:44:19Z</time>
      </trkpt>
      <trkpt lat="43.42874" lon="6.52385">
        <ele>26.57</ele>
        <time>2017-01-20T07:44:26Z</time>
      </trkpt>
      <trkpt lat="43.42892" lon="6.52391">
        <ele>26.57</ele>
        <time>2017-01-20T07:44:40Z</time>
      </trkpt>
      <trkpt lat="43.42893" lon="6.52391">
        <ele>27.05</ele>
        <time>2017-01-20T07:44:41Z</time>
      </trkpt>
      <trkpt lat="43.42909" lon="6.52402">
        <ele>27.05</ele>
        <time>2017-01-20T07:44:55Z</time>
      </trkpt>
      <trkpt lat="43.42925" lon="6.52407">
        <ele>28.02</ele>
        <time>2017-01-20T07:45:08Z</time>
      </trkpt>
      <trkpt lat="43.42943" lon="6.52398">
        <ele>28.5</ele>
        <time>2017-01-20T07:45:21Z</time>
      </trkpt>
      <trkpt lat="43.42955" lon="6.52392">
        <ele>24.65</ele>
        <time>2017-01-20T07:45:31Z</time>
      </trkpt>
      <trkpt lat="43.42956" lon="6.52391">
        <ele>32.82</ele>
        <time>2017-01-20T07:45:32Z</time>
      </trkpt>
      <trkpt lat="43.42958" lon="6.52391">
        <ele>28.98</ele>
        <time>2017-01-20T07:45:33Z</time>
      </trkpt>
      <trkpt lat="43.4297" lon="6.52377">
        <ele>28.98</ele>
        <time>2017-01-20T07:45:46Z</time>
      </trkpt>
      <trkpt lat="43.42985" lon="6.52379">
        <ele>29.94</ele>
        <time>2017-01-20T07:45:57Z</time>
      </trkpt>
      <trkpt lat="43.42991" lon="6.52384">
        <ele>30.42</ele>
        <time>2017-01-20T07:46:02Z</time>
      </trkpt>
      <trkpt lat="43.42996" lon="6.52393">
        <ele>29.94</ele>
        <time>2017-01-20T07:46:16Z</time>
      </trkpt>
      <trkpt lat="43.42997" lon="6.52396">
        <ele>29.94</ele>
        <time>2017-01-20T07:46:21Z</time>
      </trkpt>
      <trkpt lat="43.42997" lon="6.52415">
        <ele>30.42</ele>
        <time>2017-01-20T07:46:34Z</time>
      </trkpt>
      <trkpt lat="43.43" lon="6.52434">
        <ele>32.34</ele>
        <time>2017-01-20T07:46:49Z</time>
      </trkpt>
      <trkpt lat="43.43001" lon="6.52456">
        <ele>33.78</ele>
        <time>2017-01-20T07:47:01Z</time>
      </trkpt>
      <trkpt lat="43.42994" lon="6.52475">
        <ele>35.71</ele>
        <time>2017-01-20T07:47:15Z</time>
      </trkpt>
      <trkpt lat="43.42992" lon="6.5248">
        <ele>36.67</ele>
        <time>2017-01-20T07:47:18Z</time>
      </trkpt>
      <trkpt lat="43.4299" lon="6.5249">
        <ele>40.99</ele>
        <time>2017-01-20T07:47:24Z</time>
      </trkpt>
      <trkpt lat="43.42989" lon="6.52492">
        <ele>37.63</ele>
        <time>2017-01-20T07:47:26Z</time>
      </trkpt>
      <trkpt lat="43.42987" lon="6.52495">
        <ele>38.11</ele>
        <time>2017-01-20T07:47:28Z</time>
      </trkpt>
      <trkpt lat="43.42985" lon="6.52502">
        <ele>38.59</ele>
        <time>2017-01-20T07:47:32Z</time>
      </trkpt>
      <trkpt lat="43.42983" lon="6.52504">
        <ele>39.07</ele>
        <time>2017-01-20T07:47:35Z</time>
      </trkpt>
      <trkpt lat="43.42981" lon="6.52512">
        <ele>40.03</ele>
        <time>2017-01-20T07:47:40Z</time>
      </trkpt>
      <trkpt lat="43.4298" lon="6.52517">
        <ele>40.99</ele>
        <time>2017-01-20T07:47:43Z</time>
      </trkpt>
      <trkpt lat="43.42976" lon="6.52523">
        <ele>40.99</ele>
        <time>2017-01-20T07:47:59Z</time>
      </trkpt>
      <trkpt lat="43.42975" lon="6.52532">
        <ele>41.47</ele>
        <time>2017-01-20T07:48:10Z</time>
      </trkpt>
      <trkpt lat="43.42976" lon="6.5253">
        <ele>40.99</ele>
        <time>2017-01-20T07:48:22Z</time>
      </trkpt>
      <trkpt lat="43.42976" lon="6.52533">
        <ele>40.51</ele>
        <time>2017-01-20T07:48:27Z</time>
      </trkpt>
      <trkpt lat="43.42975" lon="6.52538">
        <ele>41.47</ele>
        <time>2017-01-20T07:48:31Z</time>
      </trkpt>
      <trkpt lat="43.42974" lon="6.5255">
        <ele>42.44</ele>
        <time>2017-01-20T07:48:39Z</time>
      </trkpt>
      <trkpt lat="43.42974" lon="6.52554">
        <ele>42.92</ele>
        <time>2017-01-20T07:48:41Z</time>
      </trkpt>
      <trkpt lat="43.42977" lon="6.5256">
        <ele>42.92</ele>
        <time>2017-01-20T07:48:45Z</time>
      </trkpt>
      <trkpt lat="43.42981" lon="6.52561">
        <ele>42.92</ele>
        <time>2017-01-20T07:48:57Z</time>
      </trkpt>
      <trkpt lat="43.42983" lon="6.52558">
        <ele>43.4</ele>
        <time>2017-01-20T07:49:08Z</time>
      </trkpt>
      <trkpt lat="43.42987" lon="6.52552">
        <ele>43.4</ele>
        <time>2017-01-20T07:49:13Z</time>
      </trkpt>
      <trkpt lat="43.42992" lon="6.52548">
        <ele>43.4</ele>
        <time>2017-01-20T07:49:18Z</time>
      </trkpt>
      <trkpt lat="43.43002" lon="6.52534">
        <ele>43.88</ele>
        <time>2017-01-20T07:49:30Z</time>
      </trkpt>
      <trkpt lat="43.43007" lon="6.52525">
        <ele>43.88</ele>
        <time>2017-01-20T07:49:36Z</time>
      </trkpt>
      <trkpt lat="43.43014" lon="6.52517">
        <ele>45.32</ele>
        <time>2017-01-20T07:49:43Z</time>
      </trkpt>
      <trkpt lat="43.43016" lon="6.52513">
        <ele>45.32</ele>
        <time>2017-01-20T07:49:46Z</time>
      </trkpt>
      <trkpt lat="43.4302" lon="6.52507">
        <ele>45.8</ele>
        <time>2017-01-20T07:49:52Z</time>
      </trkpt>
      <trkpt lat="43.4303" lon="6.52487">
        <ele>47.24</ele>
        <time>2017-01-20T07:50:06Z</time>
      </trkpt>
      <trkpt lat="43.43035" lon="6.52483">
        <ele>47.72</ele>
        <time>2017-01-20T07:50:10Z</time>
      </trkpt>
      <trkpt lat="43.43043" lon="6.52467">
        <ele>48.2</ele>
        <time>2017-01-20T07:50:23Z</time>
      </trkpt>
      <trkpt lat="43.43044" lon="6.52466">
        <ele>48.2</ele>
        <time>2017-01-20T07:50:41Z</time>
      </trkpt>
      <trkpt lat="43.4305" lon="6.52464">
        <ele>48.68</ele>
        <time>2017-01-20T07:50:46Z</time>
      </trkpt>
      <trkpt lat="43.43053" lon="6.52466">
        <ele>48.68</ele>
        <time>2017-01-20T07:50:49Z</time>
      </trkpt>
      <trkpt lat="43.43055" lon="6.52466">
        <ele>48.68</ele>
        <time>2017-01-20T07:50:51Z</time>
      </trkpt>
      <trkpt lat="43.43058" lon="6.52468">
        <ele>49.16</ele>
        <time>2017-01-20T07:50:54Z</time>
      </trkpt>
      <trkpt lat="43.43067" lon="6.52478">
        <ele>53.97</ele>
        <time>2017-01-20T07:51:03Z</time>
      </trkpt>
      <trkpt lat="43.43068" lon="6.52478">
        <ele>49.65</ele>
        <time>2017-01-20T07:51:04Z</time>
      </trkpt>
      <trkpt lat="43.43082" lon="6.52488">
        <ele>48.2</ele>
        <time>2017-01-20T07:51:18Z</time>
      </trkpt>
      <trkpt lat="43.43084" lon="6.52488">
        <ele>43.88</ele>
        <time>2017-01-20T07:51:19Z</time>
      </trkpt>
      <trkpt lat="43.43085" lon="6.52488">
        <ele>49.65</ele>
        <time>2017-01-20T07:51:20Z</time>
      </trkpt>
      <trkpt lat="43.43089" lon="6.52491">
        <ele>48.2</ele>
        <time>2017-01-20T07:51:23Z</time>
      </trkpt>
      <trkpt lat="43.4309" lon="6.52491">
        <ele>47.72</ele>
        <time>2017-01-20T07:51:25Z</time>
      </trkpt>
      <trkpt lat="43.43103" lon="6.52494">
        <ele>48.2</ele>
        <time>2017-01-20T07:51:37Z</time>
      </trkpt>
      <trkpt lat="43.43105" lon="6.52497">
        <ele>47.72</ele>
        <time>2017-01-20T07:51:40Z</time>
      </trkpt>
      <trkpt lat="43.43111" lon="6.52504">
        <ele>47.24</ele>
        <time>2017-01-20T07:51:46Z</time>
      </trkpt>
      <trkpt lat="43.43126" lon="6.52512">
        <ele>46.28</ele>
        <time>2017-01-20T07:52:00Z</time>
      </trkpt>
      <trkpt lat="43.43132" lon="6.52514">
        <ele>45.8</ele>
        <time>2017-01-20T07:52:04Z</time>
      </trkpt>
      <trkpt lat="43.43146" lon="6.52514">
        <ele>44.84</ele>
        <time>2017-01-20T07:52:19Z</time>
      </trkpt>
      <trkpt lat="43.43163" lon="6.52517">
        <ele>43.4</ele>
        <time>2017-01-20T07:52:34Z</time>
      </trkpt>
      <trkpt lat="43.43175" lon="6.52517">
        <ele>42.92</ele>
        <time>2017-01-20T07:52:42Z</time>
      </trkpt>
      <trkpt lat="43.43192" lon="6.52518">
        <ele>41.47</ele>
        <time>2017-01-20T07:52:55Z</time>
      </trkpt>
      <trkpt lat="43.4321" lon="6.52521">
        <ele>40.51</ele>
        <time>2017-01-20T07:53:09Z</time>
      </trkpt>
      <trkpt lat="43.43212" lon="6.52521">
        <ele>40.51</ele>
        <time>2017-01-20T07:53:11Z</time>
      </trkpt>
      <trkpt lat="43.43221" lon="6.52519">
        <ele>40.03</ele>
        <time>2017-01-20T07:53:25Z</time>
      </trkpt>
      <trkpt lat="43.43223" lon="6.52518">
        <ele>40.03</ele>
        <time>2017-01-20T07:53:26Z</time>
      </trkpt>
      <trkpt lat="43.43226" lon="6.52517">
        <ele>39.55</ele>
        <time>2017-01-20T07:53:29Z</time>
      </trkpt>
      <trkpt lat="43.43235" lon="6.52516">
        <ele>39.55</ele>
        <time>2017-01-20T07:53:37Z</time>
      </trkpt>
      <trkpt lat="43.43248" lon="6.52516">
        <ele>39.07</ele>
        <time>2017-01-20T07:53:51Z</time>
      </trkpt>
      <trkpt lat="43.43257" lon="6.52517">
        <ele>38.11</ele>
        <time>2017-01-20T07:54:09Z</time>
      </trkpt>
      <trkpt lat="43.43271" lon="6.52513">
        <ele>36.67</ele>
        <time>2017-01-20T07:54:21Z</time>
      </trkpt>
      <trkpt lat="43.4329" lon="6.5251">
        <ele>35.23</ele>
        <time>2017-01-20T07:54:36Z</time>
      </trkpt>
      <trkpt lat="43.43303" lon="6.52506">
        <ele>34.74</ele>
        <time>2017-01-20T07:54:49Z</time>
      </trkpt>
      <trkpt lat="43.4331" lon="6.52504">
        <ele>33.3</ele>
        <time>2017-01-20T07:54:56Z</time>
      </trkpt>
      <trkpt lat="43.43314" lon="6.52505">
        <ele>34.74</ele>
        <time>2017-01-20T07:54:59Z</time>
      </trkpt>
      <trkpt lat="43.43319" lon="6.52505">
        <ele>34.26</ele>
        <time>2017-01-20T07:55:03Z</time>
      </trkpt>
      <trkpt lat="43.43336" lon="6.52502">
        <ele>32.82</ele>
        <time>2017-01-20T07:55:20Z</time>
      </trkpt>
      <trkpt lat="43.43343" lon="6.52503">
        <ele>32.34</ele>
        <time>2017-01-20T07:55:28Z</time>
      </trkpt>
      <trkpt lat="43.43347" lon="6.52505">
        <ele>31.86</ele>
        <time>2017-01-20T07:55:32Z</time>
      </trkpt>
      <trkpt lat="43.43355" lon="6.52511">
        <ele>31.86</ele>
        <time>2017-01-20T07:55:39Z</time>
      </trkpt>
      <trkpt lat="43.43364" lon="6.52527">
        <ele>30.42</ele>
        <time>2017-01-20T07:55:53Z</time>
      </trkpt>
      <trkpt lat="43.43373" lon="6.52543">
        <ele>29.46</ele>
        <time>2017-01-20T07:56:06Z</time>
      </trkpt>
      <trkpt lat="43.43375" lon="6.52544">
        <ele>29.94</ele>
        <time>2017-01-20T07:56:08Z</time>
      </trkpt>
      <trkpt lat="43.43382" lon="6.52533">
        <ele>30.42</ele>
        <time>2017-01-20T07:56:20Z</time>
      </trkpt>
      <trkpt lat="43.43384" lon="6.52528">
        <ele>30.9</ele>
        <time>2017-01-20T07:56:24Z</time>
      </trkpt>
      <trkpt lat="43.43398" lon="6.52516">
        <ele>31.38</ele>
        <time>2017-01-20T07:56:40Z</time>
      </trkpt>
      <trkpt lat="43.43401" lon="6.52515">
        <ele>31.38</ele>
        <time>2017-01-20T07:56:56Z</time>
      </trkpt>
      <trkpt lat="43.43408" lon="6.52513">
        <ele>29.94</ele>
        <time>2017-01-20T07:57:10Z</time>
      </trkpt>
      <trkpt lat="43.43412" lon="6.52512">
        <ele>29.46</ele>
        <time>2017-01-20T07:57:14Z</time>
      </trkpt>
      <trkpt lat="43.43418" lon="6.52512">
        <ele>28.98</ele>
        <time>2017-01-20T07:57:18Z</time>
      </trkpt>
      <trkpt lat="43.4343" lon="6.52507">
        <ele>27.53</ele>
        <time>2017-01-20T07:57:30Z</time>
      </trkpt>
      <trkpt lat="43.43443" lon="6.52507">
        <ele>26.57</ele>
        <time>2017-01-20T07:57:43Z</time>
      </trkpt>
      <trkpt lat="43.43454" lon="6.52506">
        <ele>25.13</ele>
        <time>2017-01-20T07:57:56Z</time>
      </trkpt>
      <trkpt lat="43.43461" lon="6.52506">
        <ele>24.65</ele>
        <time>2017-01-20T07:58:04Z</time>
      </trkpt>
      <trkpt lat="43.43468" lon="6.52504">
        <ele>24.65</ele>
        <time>2017-01-20T07:58:09Z</time>
      </trkpt>
      <trkpt lat="43.4347" lon="6.52501">
        <ele>23.69</ele>
        <time>2017-01-20T07:58:13Z</time>
      </trkpt>
      <trkpt lat="43.43468" lon="6.52495">
        <ele>23.69</ele>
        <time>2017-01-20T07:58:17Z</time>
      </trkpt>
      <trkpt lat="43.43467" lon="6.52485">
        <ele>23.21</ele>
        <time>2017-01-20T07:58:23Z</time>
      </trkpt>
      <trkpt lat="43.43465" lon="6.52478">
        <ele>23.21</ele>
        <time>2017-01-20T07:58:39Z</time>
      </trkpt>
      <trkpt lat="43.43464" lon="6.52479">
        <ele>23.21</ele>
        <time>2017-01-20T07:58:47Z</time>
      </trkpt>
      <trkpt lat="43.43468" lon="6.5249">
        <ele>23.21</ele>
        <time>2017-01-20T07:58:55Z</time>
      </trkpt>
      <trkpt lat="43.43476" lon="6.52504">
        <ele>24.17</ele>
        <time>2017-01-20T07:59:08Z</time>
      </trkpt>
      <trkpt lat="43.43479" lon="6.52504">
        <ele>24.17</ele>
        <time>2017-01-20T07:59:10Z</time>
      </trkpt>
      <trkpt lat="43.43492" lon="6.52503">
        <ele>24.17</ele>
        <time>2017-01-20T07:59:19Z</time>
      </trkpt>
      <trkpt lat="43.43506" lon="6.52503">
        <ele>23.69</ele>
        <time>2017-01-20T07:59:31Z</time>
      </trkpt>
      <trkpt lat="43.43521" lon="6.52502">
        <ele>23.69</ele>
        <time>2017-01-20T07:59:44Z</time>
      </trkpt>
      <trkpt lat="43.43533" lon="6.52498">
        <ele>23.21</ele>
        <time>2017-01-20T07:59:56Z</time>
      </trkpt>
      <trkpt lat="43.43534" lon="6.52498">
        <ele>23.21</ele>
        <time>2017-01-20T07:59:58Z</time>
      </trkpt>
      <trkpt lat="43.43552" lon="6.52492">
        <ele>23.21</ele>
        <time>2017-01-20T08:00:13Z</time>
      </trkpt>
      <trkpt lat="43.43559" lon="6.5249">
        <ele>23.21</ele>
        <time>2017-01-20T08:00:18Z</time>
      </trkpt>
      <trkpt lat="43.43574" lon="6.52486">
        <ele>22.73</ele>
        <time>2017-01-20T08:00:33Z</time>
      </trkpt>
      <trkpt lat="43.43585" lon="6.52491">
        <ele>24.17</ele>
        <time>2017-01-20T08:00:50Z</time>
      </trkpt>
      <trkpt lat="43.43589" lon="6.52493">
        <ele>24.17</ele>
        <time>2017-01-20T08:01:09Z</time>
      </trkpt>
      <trkpt lat="43.43587" lon="6.52483">
        <ele>22.25</ele>
        <time>2017-01-20T08:01:21Z</time>
      </trkpt>
      <trkpt lat="43.43598" lon="6.52483">
        <ele>22.25</ele>
        <time>2017-01-20T08:01:36Z</time>
      </trkpt>
      <trkpt lat="43.43608" lon="6.52479">
        <ele>21.77</ele>
        <time>2017-01-20T08:01:49Z</time>
      </trkpt>
      <trkpt lat="43.43619" lon="6.52479">
        <ele>21.77</ele>
        <time>2017-01-20T08:02:06Z</time>
      </trkpt>
      <trkpt lat="43.43633" lon="6.52475">
        <ele>21.29</ele>
        <time>2017-01-20T08:02:19Z</time>
      </trkpt>
      <trkpt lat="43.43634" lon="6.52474">
        <ele>21.29</ele>
        <time>2017-01-20T08:02:20Z</time>
      </trkpt>
      <trkpt lat="43.43636" lon="6.52472">
        <ele>21.29</ele>
        <time>2017-01-20T08:02:22Z</time>
      </trkpt>
      <trkpt lat="43.43646" lon="6.52465">
        <ele>20.81</ele>
        <time>2017-01-20T08:02:31Z</time>
      </trkpt>
      <trkpt lat="43.43653" lon="6.52454">
        <ele>20.32</ele>
        <time>2017-01-20T08:02:43Z</time>
      </trkpt>
      <trkpt lat="43.43664" lon="6.52443">
        <ele>19.84</ele>
        <time>2017-01-20T08:02:56Z</time>
      </trkpt>
      <trkpt lat="43.43666" lon="6.52439">
        <ele>19.84</ele>
        <time>2017-01-20T08:03:01Z</time>
      </trkpt>
      <trkpt lat="43.43681" lon="6.52429">
        <ele>20.32</ele>
        <time>2017-01-20T08:03:16Z</time>
      </trkpt>
      <trkpt lat="43.43701" lon="6.52427">
        <ele>19.36</ele>
        <time>2017-01-20T08:03:32Z</time>
      </trkpt>
      <trkpt lat="43.43713" lon="6.52425">
        <ele>19.36</ele>
        <time>2017-01-20T08:03:44Z</time>
      </trkpt>
      <trkpt lat="43.4372" lon="6.52423">
        <ele>19.36</ele>
        <time>2017-01-20T08:03:48Z</time>
      </trkpt>
      <trkpt lat="43.43728" lon="6.52422">
        <ele>19.36</ele>
        <time>2017-01-20T08:03:52Z</time>
      </trkpt>
      <trkpt lat="43.43737" lon="6.52423">
        <ele>19.36</ele>
        <time>2017-01-20T08:04:04Z</time>
      </trkpt>
      <trkpt lat="43.4374" lon="6.52422">
        <ele>19.36</ele>
        <time>2017-01-20T08:04:15Z</time>
      </trkpt>
      <trkpt lat="43.43745" lon="6.52421">
        <ele>19.36</ele>
        <time>2017-01-20T08:04:19Z</time>
      </trkpt>
      <trkpt lat="43.43761" lon="6.52418">
        <ele>19.36</ele>
        <time>2017-01-20T08:04:32Z</time>
      </trkpt>
      <trkpt lat="43.43774" lon="6.52413">
        <ele>19.36</ele>
        <time>2017-01-20T08:04:45Z</time>
      </trkpt>
      <trkpt lat="43.43783" lon="6.52413">
        <ele>19.36</ele>
        <time>2017-01-20T08:04:55Z</time>
      </trkpt>
      <trkpt lat="43.43801" lon="6.52407">
        <ele>19.36</ele>
        <time>2017-01-20T08:05:10Z</time>
      </trkpt>
      <trkpt lat="43.43815" lon="6.52402">
        <ele>19.84</ele>
        <time>2017-01-20T08:05:27Z</time>
      </trkpt>
      <trkpt lat="43.43827" lon="6.52398">
        <ele>19.84</ele>
        <time>2017-01-20T08:05:41Z</time>
      </trkpt>
      <trkpt lat="43.43849" lon="6.52394">
        <ele>19.36</ele>
        <time>2017-01-20T08:05:56Z</time>
      </trkpt>
      <trkpt lat="43.43864" lon="6.52392">
        <ele>19.84</ele>
        <time>2017-01-20T08:06:11Z</time>
      </trkpt>
      <trkpt lat="43.43869" lon="6.52392">
        <ele>20.32</ele>
        <time>2017-01-20T08:06:24Z</time>
      </trkpt>
      <trkpt lat="43.43874" lon="6.52394">
        <ele>20.81</ele>
        <time>2017-01-20T08:06:40Z</time>
      </trkpt>
      <trkpt lat="43.43876" lon="6.52395">
        <ele>21.29</ele>
        <time>2017-01-20T08:06:55Z</time>
      </trkpt>
      <trkpt lat="43.43881" lon="6.52399">
        <ele>22.25</ele>
        <time>2017-01-20T08:07:11Z</time>
      </trkpt>
      <trkpt lat="43.43885" lon="6.52406">
        <ele>23.69</ele>
        <time>2017-01-20T08:07:26Z</time>
      </trkpt>
      <trkpt lat="43.43891" lon="6.52413">
        <ele>27.05</ele>
        <time>2017-01-20T08:07:37Z</time>
      </trkpt>
      <trkpt lat="43.43896" lon="6.52422">
        <ele>30.42</ele>
        <time>2017-01-20T08:07:47Z</time>
      </trkpt>
      <trkpt lat="43.43899" lon="6.52427">
        <ele>32.34</ele>
        <time>2017-01-20T08:07:53Z</time>
      </trkpt>
      <trkpt lat="43.43901" lon="6.52429">
        <ele>33.3</ele>
        <time>2017-01-20T08:07:56Z</time>
      </trkpt>
      <trkpt lat="43.43905" lon="6.52439">
        <ele>36.67</ele>
        <time>2017-01-20T08:08:06Z</time>
      </trkpt>
      <trkpt lat="43.43907" lon="6.52442">
        <ele>38.11</ele>
        <time>2017-01-20T08:08:09Z</time>
      </trkpt>
      <trkpt lat="43.43908" lon="6.52444">
        <ele>38.59</ele>
        <time>2017-01-20T08:08:11Z</time>
      </trkpt>
      <trkpt lat="43.4391" lon="6.52449">
        <ele>40.51</ele>
        <time>2017-01-20T08:08:16Z</time>
      </trkpt>
      <trkpt lat="43.43918" lon="6.52461">
        <ele>43.88</ele>
        <time>2017-01-20T08:08:27Z</time>
      </trkpt>
      <trkpt lat="43.43922" lon="6.52467">
        <ele>45.32</ele>
        <time>2017-01-20T08:08:40Z</time>
      </trkpt>
      <trkpt lat="43.43922" lon="6.52467">
        <ele>45.32</ele>
        <time>2017-01-20T08:08:41Z</time>
      </trkpt>
      <trkpt lat="43.43925" lon="6.52473">
        <ele>46.28</ele>
        <time>2017-01-20T08:08:47Z</time>
      </trkpt>
      <trkpt lat="43.43937" lon="6.52496">
        <ele>48.68</ele>
        <time>2017-01-20T08:09:03Z</time>
      </trkpt>
      <trkpt lat="43.43948" lon="6.52514">
        <ele>51.57</ele>
        <time>2017-01-20T08:09:18Z</time>
      </trkpt>
      <trkpt lat="43.43957" lon="6.52531">
        <ele>54.93</ele>
        <time>2017-01-20T08:09:32Z</time>
      </trkpt>
      <trkpt lat="43.43967" lon="6.52543">
        <ele>56.86</ele>
        <time>2017-01-20T08:09:47Z</time>
      </trkpt>
      <trkpt lat="43.43968" lon="6.52546">
        <ele>56.86</ele>
        <time>2017-01-20T08:10:04Z</time>
      </trkpt>
      <trkpt lat="43.43969" lon="6.52547">
        <ele>56.86</ele>
        <time>2017-01-20T08:10:33Z</time>
      </trkpt>
      <trkpt lat="43.4397" lon="6.52554">
        <ele>57.82</ele>
        <time>2017-01-20T08:10:56Z</time>
      </trkpt>
      <trkpt lat="43.43971" lon="6.52556">
        <ele>57.82</ele>
        <time>2017-01-20T08:11:23Z</time>
      </trkpt>
      <trkpt lat="43.4397" lon="6.52558">
        <ele>58.3</ele>
        <time>2017-01-20T08:11:25Z</time>
      </trkpt>
      <trkpt lat="43.43966" lon="6.52581">
        <ele>58.78</ele>
        <time>2017-01-20T08:11:39Z</time>
      </trkpt>
      <trkpt lat="43.43957" lon="6.52603">
        <ele>60.22</ele>
        <time>2017-01-20T08:11:55Z</time>
      </trkpt>
      <trkpt lat="43.43957" lon="6.52606">
        <ele>60.22</ele>
        <time>2017-01-20T08:11:57Z</time>
      </trkpt>
      <trkpt lat="43.43955" lon="6.52608">
        <ele>60.7</ele>
        <time>2017-01-20T08:11:59Z</time>
      </trkpt>
      <trkpt lat="43.4395" lon="6.52632">
        <ele>61.66</ele>
        <time>2017-01-20T08:12:15Z</time>
      </trkpt>
      <trkpt lat="43.43949" lon="6.52649">
        <ele>63.58</ele>
        <time>2017-01-20T08:12:26Z</time>
      </trkpt>
      <trkpt lat="43.43949" lon="6.52663">
        <ele>64.55</ele>
        <time>2017-01-20T08:12:35Z</time>
      </trkpt>
      <trkpt lat="43.43949" lon="6.52677">
        <ele>65.51</ele>
        <time>2017-01-20T08:12:46Z</time>
      </trkpt>
      <trkpt lat="43.43946" lon="6.52697">
        <ele>68.39</ele>
        <time>2017-01-20T08:13:00Z</time>
      </trkpt>
      <trkpt lat="43.43943" lon="6.52712">
        <ele>70.79</ele>
        <time>2017-01-20T08:13:14Z</time>
      </trkpt>
      <trkpt lat="43.43944" lon="6.52721">
        <ele>71.76</ele>
        <time>2017-01-20T08:13:27Z</time>
      </trkpt>
      <trkpt lat="43.43945" lon="6.52726">
        <ele>72.24</ele>
        <time>2017-01-20T08:13:31Z</time>
      </trkpt>
      <trkpt lat="43.43952" lon="6.52736">
        <ele>73.68</ele>
        <time>2017-01-20T08:13:41Z</time>
      </trkpt>
      <trkpt lat="43.43953" lon="6.52739">
        <ele>73.68</ele>
        <time>2017-01-20T08:13:43Z</time>
      </trkpt>
      <trkpt lat="43.4396" lon="6.52755">
        <ele>76.08</ele>
        <time>2017-01-20T08:13:56Z</time>
      </trkpt>
      <trkpt lat="43.43967" lon="6.52773">
        <ele>78.97</ele>
        <time>2017-01-20T08:14:10Z</time>
      </trkpt>
      <trkpt lat="43.43972" lon="6.52789">
        <ele>81.85</ele>
        <time>2017-01-20T08:14:23Z</time>
      </trkpt>
      <trkpt lat="43.43979" lon="6.528">
        <ele>84.73</ele>
        <time>2017-01-20T08:14:35Z</time>
      </trkpt>
      <trkpt lat="43.43986" lon="6.52818">
        <ele>88.1</ele>
        <time>2017-01-20T08:14:49Z</time>
      </trkpt>
      <trkpt lat="43.43987" lon="6.52831">
        <ele>91.46</ele>
        <time>2017-01-20T08:15:00Z</time>
      </trkpt>
      <trkpt lat="43.4399" lon="6.52835">
        <ele>93.39</ele>
        <time>2017-01-20T08:15:15Z</time>
      </trkpt>
      <trkpt lat="43.43991" lon="6.52844">
        <ele>94.35</ele>
        <time>2017-01-20T08:15:33Z</time>
      </trkpt>
      <trkpt lat="43.43992" lon="6.52853">
        <ele>96.75</ele>
        <time>2017-01-20T08:15:45Z</time>
      </trkpt>
      <trkpt lat="43.43992" lon="6.5286">
        <ele>97.23</ele>
        <time>2017-01-20T08:15:51Z</time>
      </trkpt>
      <trkpt lat="43.43991" lon="6.52877">
        <ele>101.08</ele>
        <time>2017-01-20T08:16:06Z</time>
      </trkpt>
      <trkpt lat="43.4399" lon="6.52888">
        <ele>103.96</ele>
        <time>2017-01-20T08:16:17Z</time>
      </trkpt>
      <trkpt lat="43.43987" lon="6.529">
        <ele>107.32</ele>
        <time>2017-01-20T08:16:29Z</time>
      </trkpt>
      <trkpt lat="43.43985" lon="6.52911">
        <ele>110.21</ele>
        <time>2017-01-20T08:16:43Z</time>
      </trkpt>
      <trkpt lat="43.43984" lon="6.5291">
        <ele>110.21</ele>
        <time>2017-01-20T08:17:08Z</time>
      </trkpt>
      <trkpt lat="43.43985" lon="6.52911">
        <ele>110.21</ele>
        <time>2017-01-20T08:17:25Z</time>
      </trkpt>
      <trkpt lat="43.43985" lon="6.52914">
        <ele>111.17</ele>
        <time>2017-01-20T08:17:29Z</time>
      </trkpt>
      <trkpt lat="43.43987" lon="6.52929">
        <ele>113.57</ele>
        <time>2017-01-20T08:17:40Z</time>
      </trkpt>
      <trkpt lat="43.43995" lon="6.5294">
        <ele>116.94</ele>
        <time>2017-01-20T08:17:52Z</time>
      </trkpt>
      <trkpt lat="43.44004" lon="6.52943">
        <ele>118.38</ele>
        <time>2017-01-20T08:18:07Z</time>
      </trkpt>
      <trkpt lat="43.44005" lon="6.52942">
        <ele>118.38</ele>
        <time>2017-01-20T08:18:22Z</time>
      </trkpt>
      <trkpt lat="43.44005" lon="6.52943">
        <ele>118.38</ele>
        <time>2017-01-20T08:18:44Z</time>
      </trkpt>
      <trkpt lat="43.44007" lon="6.5295">
        <ele>119.82</ele>
        <time>2017-01-20T08:19:07Z</time>
      </trkpt>
      <trkpt lat="43.44008" lon="6.52961">
        <ele>122.71</ele>
        <time>2017-01-20T08:19:19Z</time>
      </trkpt>
      <trkpt lat="43.44008" lon="6.5298">
        <ele>125.11</ele>
        <time>2017-01-20T08:19:32Z</time>
      </trkpt>
      <trkpt lat="43.44007" lon="6.53001">
        <ele>127.99</ele>
        <time>2017-01-20T08:19:45Z</time>
      </trkpt>
      <trkpt lat="43.44006" lon="6.53017">
        <ele>130.88</ele>
        <time>2017-01-20T08:19:56Z</time>
      </trkpt>
      <trkpt lat="43.44004" lon="6.53033">
        <ele>134.24</ele>
        <time>2017-01-20T08:20:08Z</time>
      </trkpt>
      <trkpt lat="43.44001" lon="6.53051">
        <ele>136.64</ele>
        <time>2017-01-20T08:20:20Z</time>
      </trkpt>
      <trkpt lat="43.43998" lon="6.53065">
        <ele>138.57</ele>
        <time>2017-01-20T08:20:34Z</time>
      </trkpt>
      <trkpt lat="43.43996" lon="6.53073">
        <ele>139.53</ele>
        <time>2017-01-20T08:20:39Z</time>
      </trkpt>
      <trkpt lat="43.43993" lon="6.53083">
        <ele>140.49</ele>
        <time>2017-01-20T08:20:52Z</time>
      </trkpt>
      <trkpt lat="43.43991" lon="6.53088">
        <ele>141.45</ele>
        <time>2017-01-20T08:20:56Z</time>
      </trkpt>
      <trkpt lat="43.43979" lon="6.53101">
        <ele>144.34</ele>
        <time>2017-01-20T08:21:11Z</time>
      </trkpt>
      <trkpt lat="43.43973" lon="6.53105">
        <ele>145.3</ele>
        <time>2017-01-20T08:21:19Z</time>
      </trkpt>
      <trkpt lat="43.43971" lon="6.53107">
        <ele>145.78</ele>
        <time>2017-01-20T08:21:34Z</time>
      </trkpt>
      <trkpt lat="43.4397" lon="6.53107">
        <ele>145.3</ele>
        <time>2017-01-20T08:22:02Z</time>
      </trkpt>
      <trkpt lat="43.4397" lon="6.53105">
        <ele>145.3</ele>
        <time>2017-01-20T08:22:34Z</time>
      </trkpt>
      <trkpt lat="43.4397" lon="6.53105">
        <ele>145.78</ele>
        <time>2017-01-20T08:22:56Z</time>
      </trkpt>
      <trkpt lat="43.4397" lon="6.53105">
        <ele>145.3</ele>
        <time>2017-01-20T08:23:11Z</time>
      </trkpt>
      <trkpt lat="43.43968" lon="6.53106">
        <ele>145.78</ele>
        <time>2017-01-20T08:23:31Z</time>
      </trkpt>
      <trkpt lat="43.43968" lon="6.53106">
        <ele>145.3</ele>
        <time>2017-01-20T08:23:34Z</time>
      </trkpt>
      <trkpt lat="43.43966" lon="6.53107">
        <ele>145.3</ele>
        <time>2017-01-20T08:23:36Z</time>
      </trkpt>
      <trkpt lat="43.43957" lon="6.53111">
        <ele>148.18</ele>
        <time>2017-01-20T08:23:49Z</time>
      </trkpt>
      <trkpt lat="43.43951" lon="6.53113">
        <ele>153.47</ele>
        <time>2017-01-20T08:23:57Z</time>
      </trkpt>
      <trkpt lat="43.4395" lon="6.53114">
        <ele>152.03</ele>
        <time>2017-01-20T08:23:58Z</time>
      </trkpt>
      <trkpt lat="43.43949" lon="6.53114">
        <ele>150.1</ele>
        <time>2017-01-20T08:24:00Z</time>
      </trkpt>
      <trkpt lat="43.43946" lon="6.53117">
        <ele>153.47</ele>
        <time>2017-01-20T08:24:06Z</time>
      </trkpt>
      <trkpt lat="43.43946" lon="6.53118">
        <ele>152.03</ele>
        <time>2017-01-20T08:24:24Z</time>
      </trkpt>
      <trkpt lat="43.43942" lon="6.53121">
        <ele>153.95</ele>
        <time>2017-01-20T08:24:36Z</time>
      </trkpt>
      <trkpt lat="43.43944" lon="6.53118">
        <ele>152.99</ele>
        <time>2017-01-20T08:24:40Z</time>
      </trkpt>
      <trkpt lat="43.43953" lon="6.53111">
        <ele>149.14</ele>
        <time>2017-01-20T08:24:51Z</time>
      </trkpt>
      <trkpt lat="43.43962" lon="6.53109">
        <ele>146.74</ele>
        <time>2017-01-20T08:25:02Z</time>
      </trkpt>
      <trkpt lat="43.43965" lon="6.53117">
        <ele>146.26</ele>
        <time>2017-01-20T08:25:08Z</time>
      </trkpt>
      <trkpt lat="43.43961" lon="6.53133">
        <ele>144.82</ele>
        <time>2017-01-20T08:25:19Z</time>
      </trkpt>
      <trkpt lat="43.43959" lon="6.53136">
        <ele>149.62</ele>
        <time>2017-01-20T08:25:21Z</time>
      </trkpt>
      <trkpt lat="43.43959" lon="6.53137">
        <ele>143.85</ele>
        <time>2017-01-20T08:25:22Z</time>
      </trkpt>
      <trkpt lat="43.43958" lon="6.53137">
        <ele>149.62</ele>
        <time>2017-01-20T08:25:23Z</time>
      </trkpt>
      <trkpt lat="43.43958" lon="6.53133">
        <ele>146.74</ele>
        <time>2017-01-20T08:25:35Z</time>
      </trkpt>
      <trkpt lat="43.43961" lon="6.53128">
        <ele>146.26</ele>
        <time>2017-01-20T08:25:40Z</time>
      </trkpt>
      <trkpt lat="43.43965" lon="6.53118">
        <ele>145.78</ele>
        <time>2017-01-20T08:25:54Z</time>
      </trkpt>
      <trkpt lat="43.43966" lon="6.53118">
        <ele>146.26</ele>
        <time>2017-01-20T08:26:10Z</time>
      </trkpt>
      <trkpt lat="43.43964" lon="6.53123">
        <ele>146.26</ele>
        <time>2017-01-20T08:26:13Z</time>
      </trkpt>
      <trkpt lat="43.43961" lon="6.53132">
        <ele>146.26</ele>
        <time>2017-01-20T08:26:19Z</time>
      </trkpt>
      <trkpt lat="43.43952" lon="6.53144">
        <ele>147.22</ele>
        <time>2017-01-20T08:26:30Z</time>
      </trkpt>
      <trkpt lat="43.43948" lon="6.5315">
        <ele>147.7</ele>
        <time>2017-01-20T08:26:35Z</time>
      </trkpt>
      <trkpt lat="43.4394" lon="6.53166">
        <ele>148.66</ele>
        <time>2017-01-20T08:26:46Z</time>
      </trkpt>
      <trkpt lat="43.43933" lon="6.53187">
        <ele>149.14</ele>
        <time>2017-01-20T08:27:00Z</time>
      </trkpt>
      <trkpt lat="43.43927" lon="6.53205">
        <ele>149.14</ele>
        <time>2017-01-20T08:27:13Z</time>
      </trkpt>
      <trkpt lat="43.43922" lon="6.53221">
        <ele>150.1</ele>
        <time>2017-01-20T08:27:24Z</time>
      </trkpt>
      <trkpt lat="43.43918" lon="6.53239">
        <ele>149.62</ele>
        <time>2017-01-20T08:27:36Z</time>
      </trkpt>
      <trkpt lat="43.4391" lon="6.53254">
        <ele>151.06</ele>
        <time>2017-01-20T08:27:49Z</time>
      </trkpt>
      <trkpt lat="43.43901" lon="6.53267">
        <ele>150.58</ele>
        <time>2017-01-20T08:28:02Z</time>
      </trkpt>
      <trkpt lat="43.43899" lon="6.53269">
        <ele>150.58</ele>
        <time>2017-01-20T08:28:04Z</time>
      </trkpt>
      <trkpt lat="43.43893" lon="6.53274">
        <ele>150.58</ele>
        <time>2017-01-20T08:28:09Z</time>
      </trkpt>
      <trkpt lat="43.43878" lon="6.53289">
        <ele>151.54</ele>
        <time>2017-01-20T08:28:26Z</time>
      </trkpt>
      <trkpt lat="43.43868" lon="6.53299">
        <ele>152.03</ele>
        <time>2017-01-20T08:28:35Z</time>
      </trkpt>
      <trkpt lat="43.43865" lon="6.53305">
        <ele>152.03</ele>
        <time>2017-01-20T08:28:39Z</time>
      </trkpt>
      <trkpt lat="43.43854" lon="6.5331">
        <ele>152.03</ele>
        <time>2017-01-20T08:28:48Z</time>
      </trkpt>
      <trkpt lat="43.43841" lon="6.53316">
        <ele>152.99</ele>
        <time>2017-01-20T08:29:00Z</time>
      </trkpt>
      <trkpt lat="43.43829" lon="6.53323">
        <ele>153.47</ele>
        <time>2017-01-20T08:29:12Z</time>
      </trkpt>
      <trkpt lat="43.43815" lon="6.53331">
        <ele>154.91</ele>
        <time>2017-01-20T08:29:25Z</time>
      </trkpt>
      <trkpt lat="43.43812" lon="6.53331">
        <ele>154.91</ele>
        <time>2017-01-20T08:29:31Z</time>
      </trkpt>
      <trkpt lat="43.43804" lon="6.53337">
        <ele>155.87</ele>
        <time>2017-01-20T08:29:42Z</time>
      </trkpt>
      <trkpt lat="43.4379" lon="6.53349">
        <ele>158.27</ele>
        <time>2017-01-20T08:29:56Z</time>
      </trkpt>
      <trkpt lat="43.43784" lon="6.53353">
        <ele>158.27</ele>
        <time>2017-01-20T08:30:03Z</time>
      </trkpt>
      <trkpt lat="43.43775" lon="6.53362">
        <ele>158.75</ele>
        <time>2017-01-20T08:30:13Z</time>
      </trkpt>
      <trkpt lat="43.43762" lon="6.53373">
        <ele>158.75</ele>
        <time>2017-01-20T08:30:26Z</time>
      </trkpt>
      <trkpt lat="43.43751" lon="6.53376">
        <ele>157.79</ele>
        <time>2017-01-20T08:30:35Z</time>
      </trkpt>
      <trkpt lat="43.43747" lon="6.53375">
        <ele>157.79</ele>
        <time>2017-01-20T08:30:39Z</time>
      </trkpt>
      <trkpt lat="43.43738" lon="6.5337">
        <ele>153.47</ele>
        <time>2017-01-20T08:30:46Z</time>
      </trkpt>
      <trkpt lat="43.43737" lon="6.5337">
        <ele>160.68</ele>
        <time>2017-01-20T08:30:47Z</time>
      </trkpt>
      <trkpt lat="43.43736" lon="6.53369">
        <ele>157.31</ele>
        <time>2017-01-20T08:30:48Z</time>
      </trkpt>
      <trkpt lat="43.43735" lon="6.53368">
        <ele>156.83</ele>
        <time>2017-01-20T08:30:50Z</time>
      </trkpt>
      <trkpt lat="43.43716" lon="6.5336">
        <ele>155.39</ele>
        <time>2017-01-20T08:31:05Z</time>
      </trkpt>
      <trkpt lat="43.43713" lon="6.53358">
        <ele>155.87</ele>
        <time>2017-01-20T08:31:08Z</time>
      </trkpt>
      <trkpt lat="43.43709" lon="6.53356">
        <ele>155.87</ele>
        <time>2017-01-20T08:31:23Z</time>
      </trkpt>
      <trkpt lat="43.43706" lon="6.53354">
        <ele>155.87</ele>
        <time>2017-01-20T08:31:29Z</time>
      </trkpt>
      <trkpt lat="43.43706" lon="6.53354">
        <ele>155.87</ele>
        <time>2017-01-20T08:31:42Z</time>
      </trkpt>
      <trkpt lat="43.43699" lon="6.5335">
        <ele>155.87</ele>
        <time>2017-01-20T08:31:58Z</time>
      </trkpt>
      <trkpt lat="43.43695" lon="6.53345">
        <ele>156.35</ele>
        <time>2017-01-20T08:32:12Z</time>
      </trkpt>
      <trkpt lat="43.43694" lon="6.53345">
        <ele>156.35</ele>
        <time>2017-01-20T08:32:17Z</time>
      </trkpt>
      <trkpt lat="43.43691" lon="6.53348">
        <ele>156.83</ele>
        <time>2017-01-20T08:32:22Z</time>
      </trkpt>
      <trkpt lat="43.43679" lon="6.53346">
        <ele>157.79</ele>
        <time>2017-01-20T08:32:35Z</time>
      </trkpt>
      <trkpt lat="43.43664" lon="6.53353">
        <ele>158.27</ele>
        <time>2017-01-20T08:32:47Z</time>
      </trkpt>
      <trkpt lat="43.43657" lon="6.53359">
        <ele>158.75</ele>
        <time>2017-01-20T08:32:53Z</time>
      </trkpt>
      <trkpt lat="43.43646" lon="6.53361">
        <ele>159.24</ele>
        <time>2017-01-20T08:33:00Z</time>
      </trkpt>
      <trkpt lat="43.4364" lon="6.53364">
        <ele>160.2</ele>
        <time>2017-01-20T08:33:05Z</time>
      </trkpt>
      <trkpt lat="43.43625" lon="6.53367">
        <ele>161.64</ele>
        <time>2017-01-20T08:33:18Z</time>
      </trkpt>
      <trkpt lat="43.43618" lon="6.53368">
        <ele>162.6</ele>
        <time>2017-01-20T08:33:24Z</time>
      </trkpt>
      <trkpt lat="43.43604" lon="6.53372">
        <ele>164.04</ele>
        <time>2017-01-20T08:33:36Z</time>
      </trkpt>
      <trkpt lat="43.43604" lon="6.53372">
        <ele>164.04</ele>
        <time>2017-01-20T08:33:50Z</time>
      </trkpt>
      <trkpt lat="43.43604" lon="6.53372">
        <ele>164.04</ele>
        <time>2017-01-20T08:34:02Z</time>
      </trkpt>
      <trkpt lat="43.43589" lon="6.53375">
        <ele>165.48</ele>
        <time>2017-01-20T08:34:15Z</time>
      </trkpt>
      <trkpt lat="43.43582" lon="6.53378">
        <ele>166.45</ele>
        <time>2017-01-20T08:34:22Z</time>
      </trkpt>
      <trkpt lat="43.43577" lon="6.53379">
        <ele>166.93</ele>
        <time>2017-01-20T08:34:26Z</time>
      </trkpt>
      <trkpt lat="43.43557" lon="6.53385">
        <ele>168.85</ele>
        <time>2017-01-20T08:34:41Z</time>
      </trkpt>
      <trkpt lat="43.43551" lon="6.53383">
        <ele>168.85</ele>
        <time>2017-01-20T08:34:56Z</time>
      </trkpt>
      <trkpt lat="43.4355" lon="6.53382">
        <ele>169.81</ele>
        <time>2017-01-20T08:35:09Z</time>
      </trkpt>
      <trkpt lat="43.43548" lon="6.53382">
        <ele>169.81</ele>
        <time>2017-01-20T08:35:11Z</time>
      </trkpt>
      <trkpt lat="43.43545" lon="6.53379">
        <ele>169.33</ele>
        <time>2017-01-20T08:35:20Z</time>
      </trkpt>
      <trkpt lat="43.43539" lon="6.53377">
        <ele>168.85</ele>
        <time>2017-01-20T08:35:37Z</time>
      </trkpt>
      <trkpt lat="43.43533" lon="6.53374">
        <ele>168.85</ele>
        <time>2017-01-20T08:35:55Z</time>
      </trkpt>
      <trkpt lat="43.43524" lon="6.53376">
        <ele>167.41</ele>
        <time>2017-01-20T08:36:07Z</time>
      </trkpt>
      <trkpt lat="43.43518" lon="6.53378">
        <ele>166.93</ele>
        <time>2017-01-20T08:36:14Z</time>
      </trkpt>
      <trkpt lat="43.43499" lon="6.53377">
        <ele>165</ele>
        <time>2017-01-20T08:36:31Z</time>
      </trkpt>
      <trkpt lat="43.43488" lon="6.53379">
        <ele>163.56</ele>
        <time>2017-01-20T08:36:43Z</time>
      </trkpt>
      <trkpt lat="43.43485" lon="6.53379">
        <ele>163.56</ele>
        <time>2017-01-20T08:36:45Z</time>
      </trkpt>
      <trkpt lat="43.43483" lon="6.5338">
        <ele>163.08</ele>
        <time>2017-01-20T08:36:47Z</time>
      </trkpt>
      <trkpt lat="43.43466" lon="6.53385">
        <ele>162.12</ele>
        <time>2017-01-20T08:37:00Z</time>
      </trkpt>
      <trkpt lat="43.43454" lon="6.53388">
        <ele>161.16</ele>
        <time>2017-01-20T08:37:09Z</time>
      </trkpt>
      <trkpt lat="43.43433" lon="6.53394">
        <ele>159.24</ele>
        <time>2017-01-20T08:37:25Z</time>
      </trkpt>
      <trkpt lat="43.43425" lon="6.53393">
        <ele>158.27</ele>
        <time>2017-01-20T08:37:32Z</time>
      </trkpt>
      <trkpt lat="43.43422" lon="6.53391">
        <ele>158.27</ele>
        <time>2017-01-20T08:37:34Z</time>
      </trkpt>
      <trkpt lat="43.43403" lon="6.53379">
        <ele>156.35</ele>
        <time>2017-01-20T08:37:49Z</time>
      </trkpt>
      <trkpt lat="43.43398" lon="6.53377">
        <ele>155.87</ele>
        <time>2017-01-20T08:37:53Z</time>
      </trkpt>
      <trkpt lat="43.43385" lon="6.53375">
        <ele>154.91</ele>
        <time>2017-01-20T08:38:02Z</time>
      </trkpt>
      <trkpt lat="43.43377" lon="6.53376">
        <ele>153.95</ele>
        <time>2017-01-20T08:38:09Z</time>
      </trkpt>
      <trkpt lat="43.43361" lon="6.53379">
        <ele>153.47</ele>
        <time>2017-01-20T08:38:21Z</time>
      </trkpt>
      <trkpt lat="43.43357" lon="6.5337">
        <ele>153.95</ele>
        <time>2017-01-20T08:38:33Z</time>
      </trkpt>
      <trkpt lat="43.43358" lon="6.53363">
        <ele>153.95</ele>
        <time>2017-01-20T08:38:37Z</time>
      </trkpt>
      <trkpt lat="43.43366" lon="6.53338">
        <ele>152.03</ele>
        <time>2017-01-20T08:38:51Z</time>
      </trkpt>
      <trkpt lat="43.43369" lon="6.53331">
        <ele>151.54</ele>
        <time>2017-01-20T08:38:55Z</time>
      </trkpt>
      <trkpt lat="43.43371" lon="6.53324">
        <ele>151.06</ele>
        <time>2017-01-20T08:39:00Z</time>
      </trkpt>
      <trkpt lat="43.4338" lon="6.53302">
        <ele>149.62</ele>
        <time>2017-01-20T08:39:13Z</time>
      </trkpt>
      <trkpt lat="43.43383" lon="6.53289">
        <ele>148.66</ele>
        <time>2017-01-20T08:39:21Z</time>
      </trkpt>
      <trkpt lat="43.43385" lon="6.53274">
        <ele>148.18</ele>
        <time>2017-01-20T08:39:29Z</time>
      </trkpt>
      <trkpt lat="43.43379" lon="6.53252">
        <ele>146.26</ele>
        <time>2017-01-20T08:39:42Z</time>
      </trkpt>
      <trkpt lat="43.43373" lon="6.53243">
        <ele>145.3</ele>
        <time>2017-01-20T08:39:48Z</time>
      </trkpt>
      <trkpt lat="43.43364" lon="6.53225">
        <ele>144.34</ele>
        <time>2017-01-20T08:40:00Z</time>
      </trkpt>
      <trkpt lat="43.43359" lon="6.53213">
        <ele>139.53</ele>
        <time>2017-01-20T08:40:09Z</time>
      </trkpt>
      <trkpt lat="43.43358" lon="6.53213">
        <ele>147.22</ele>
        <time>2017-01-20T08:40:10Z</time>
      </trkpt>
      <trkpt lat="43.43358" lon="6.53211">
        <ele>143.85</ele>
        <time>2017-01-20T08:40:11Z</time>
      </trkpt>
      <trkpt lat="43.43353" lon="6.53204">
        <ele>143.37</ele>
        <time>2017-01-20T08:40:17Z</time>
      </trkpt>
      <trkpt lat="43.4335" lon="6.532">
        <ele>142.89</ele>
        <time>2017-01-20T08:40:20Z</time>
      </trkpt>
      <trkpt lat="43.43347" lon="6.53196">
        <ele>142.41</ele>
        <time>2017-01-20T08:40:23Z</time>
      </trkpt>
      <trkpt lat="43.43345" lon="6.53194">
        <ele>142.41</ele>
        <time>2017-01-20T08:40:25Z</time>
      </trkpt>
      <trkpt lat="43.43336" lon="6.53182">
        <ele>140.97</ele>
        <time>2017-01-20T08:40:37Z</time>
      </trkpt>
      <trkpt lat="43.43326" lon="6.53163">
        <ele>139.53</ele>
        <time>2017-01-20T08:40:48Z</time>
      </trkpt>
      <trkpt lat="43.43316" lon="6.5315">
        <ele>137.61</ele>
        <time>2017-01-20T08:40:57Z</time>
      </trkpt>
      <trkpt lat="43.43312" lon="6.53145">
        <ele>137.13</ele>
        <time>2017-01-20T08:41:01Z</time>
      </trkpt>
      <trkpt lat="43.43302" lon="6.53133">
        <ele>136.16</ele>
        <time>2017-01-20T08:41:11Z</time>
      </trkpt>
      <trkpt lat="43.43296" lon="6.53122">
        <ele>135.68</ele>
        <time>2017-01-20T08:41:17Z</time>
      </trkpt>
      <trkpt lat="43.4328" lon="6.53108">
        <ele>134.24</ele>
        <time>2017-01-20T08:41:30Z</time>
      </trkpt>
      <trkpt lat="43.43264" lon="6.53101">
        <ele>132.8</ele>
        <time>2017-01-20T08:41:42Z</time>
      </trkpt>
      <trkpt lat="43.43248" lon="6.53099">
        <ele>131.84</ele>
        <time>2017-01-20T08:41:55Z</time>
      </trkpt>
      <trkpt lat="43.43237" lon="6.53104">
        <ele>130.88</ele>
        <time>2017-01-20T08:42:03Z</time>
      </trkpt>
      <trkpt lat="43.43234" lon="6.53104">
        <ele>130.4</ele>
        <time>2017-01-20T08:42:05Z</time>
      </trkpt>
      <trkpt lat="43.43229" lon="6.53102">
        <ele>129.43</ele>
        <time>2017-01-20T08:42:09Z</time>
      </trkpt>
      <trkpt lat="43.43225" lon="6.53097">
        <ele>129.43</ele>
        <time>2017-01-20T08:42:14Z</time>
      </trkpt>
      <trkpt lat="43.43223" lon="6.53085">
        <ele>128.47</ele>
        <time>2017-01-20T08:42:21Z</time>
      </trkpt>
      <trkpt lat="43.43222" lon="6.5308">
        <ele>127.99</ele>
        <time>2017-01-20T08:42:24Z</time>
      </trkpt>
      <trkpt lat="43.43221" lon="6.53067">
        <ele>126.55</ele>
        <time>2017-01-20T08:42:32Z</time>
      </trkpt>
      <trkpt lat="43.43223" lon="6.53052">
        <ele>125.59</ele>
        <time>2017-01-20T08:42:38Z</time>
      </trkpt>
      <trkpt lat="43.43232" lon="6.53025">
        <ele>123.67</ele>
        <time>2017-01-20T08:42:52Z</time>
      </trkpt>
      <trkpt lat="43.43232" lon="6.5301">
        <ele>122.71</ele>
        <time>2017-01-20T08:43:00Z</time>
      </trkpt>
      <trkpt lat="43.4323" lon="6.53003">
        <ele>122.22</ele>
        <time>2017-01-20T08:43:04Z</time>
      </trkpt>
      <trkpt lat="43.43227" lon="6.52999">
        <ele>121.74</ele>
        <time>2017-01-20T08:43:06Z</time>
      </trkpt>
      <trkpt lat="43.43224" lon="6.52995">
        <ele>121.26</ele>
        <time>2017-01-20T08:43:09Z</time>
      </trkpt>
      <trkpt lat="43.43217" lon="6.52966">
        <ele>119.82</ele>
        <time>2017-01-20T08:43:23Z</time>
      </trkpt>
      <trkpt lat="43.43214" lon="6.52951">
        <ele>118.38</ele>
        <time>2017-01-20T08:43:31Z</time>
      </trkpt>
      <trkpt lat="43.43211" lon="6.52935">
        <ele>117.42</ele>
        <time>2017-01-20T08:43:40Z</time>
      </trkpt>
      <trkpt lat="43.43209" lon="6.52924">
        <ele>117.42</ele>
        <time>2017-01-20T08:43:46Z</time>
      </trkpt>
      <trkpt lat="43.43208" lon="6.5292">
        <ele>116.94</ele>
        <time>2017-01-20T08:43:48Z</time>
      </trkpt>
      <trkpt lat="43.43208" lon="6.52911">
        <ele>116.94</ele>
        <time>2017-01-20T08:43:53Z</time>
      </trkpt>
      <trkpt lat="43.43207" lon="6.52897">
        <ele>116.46</ele>
        <time>2017-01-20T08:44:00Z</time>
      </trkpt>
      <trkpt lat="43.43207" lon="6.52891">
        <ele>116.46</ele>
        <time>2017-01-20T08:44:03Z</time>
      </trkpt>
      <trkpt lat="43.43207" lon="6.52886">
        <ele>115.98</ele>
        <time>2017-01-20T08:44:06Z</time>
      </trkpt>
      <trkpt lat="43.43207" lon="6.52873">
        <ele>115.5</ele>
        <time>2017-01-20T08:44:14Z</time>
      </trkpt>
      <trkpt lat="43.43207" lon="6.52869">
        <ele>115.5</ele>
        <time>2017-01-20T08:44:16Z</time>
      </trkpt>
      <trkpt lat="43.43207" lon="6.52863">
        <ele>115.01</ele>
        <time>2017-01-20T08:44:19Z</time>
      </trkpt>
      <trkpt lat="43.43205" lon="6.52844">
        <ele>114.53</ele>
        <time>2017-01-20T08:44:31Z</time>
      </trkpt>
      <trkpt lat="43.43205" lon="6.52834">
        <ele>114.05</ele>
        <time>2017-01-20T08:44:36Z</time>
      </trkpt>
      <trkpt lat="43.43204" lon="6.52824">
        <ele>113.57</ele>
        <time>2017-01-20T08:44:42Z</time>
      </trkpt>
      <trkpt lat="43.43202" lon="6.52819">
        <ele>113.57</ele>
        <time>2017-01-20T08:44:46Z</time>
      </trkpt>
      <trkpt lat="43.43202" lon="6.52817">
        <ele>114.05</ele>
        <time>2017-01-20T08:44:56Z</time>
      </trkpt>
      <trkpt lat="43.43201" lon="6.52804">
        <ele>113.09</ele>
        <time>2017-01-20T08:45:12Z</time>
      </trkpt>
      <trkpt lat="43.43201" lon="6.52805">
        <ele>113.57</ele>
        <time>2017-01-20T08:45:28Z</time>
      </trkpt>
      <trkpt lat="43.43201" lon="6.52805">
        <ele>113.57</ele>
        <time>2017-01-20T08:45:37Z</time>
      </trkpt>
      <trkpt lat="43.432" lon="6.52807">
        <ele>113.09</ele>
        <time>2017-01-20T08:45:39Z</time>
      </trkpt>
      <trkpt lat="43.43199" lon="6.52816">
        <ele>114.53</ele>
        <time>2017-01-20T08:45:45Z</time>
      </trkpt>
      <trkpt lat="43.43198" lon="6.52831">
        <ele>115.01</ele>
        <time>2017-01-20T08:45:57Z</time>
      </trkpt>
      <trkpt lat="43.43196" lon="6.52849">
        <ele>118.86</ele>
        <time>2017-01-20T08:46:08Z</time>
      </trkpt>
      <trkpt lat="43.43196" lon="6.52854">
        <ele>118.38</ele>
        <time>2017-01-20T08:46:11Z</time>
      </trkpt>
      <trkpt lat="43.43196" lon="6.52857">
        <ele>118.86</ele>
        <time>2017-01-20T08:46:13Z</time>
      </trkpt>
      <trkpt lat="43.43193" lon="6.52865">
        <ele>119.82</ele>
        <time>2017-01-20T08:46:18Z</time>
      </trkpt>
      <trkpt lat="43.43191" lon="6.52871">
        <ele>120.3</ele>
        <time>2017-01-20T08:46:22Z</time>
      </trkpt>
      <trkpt lat="43.43185" lon="6.52882">
        <ele>122.22</ele>
        <time>2017-01-20T08:46:36Z</time>
      </trkpt>
      <trkpt lat="43.43182" lon="6.52887">
        <ele>122.22</ele>
        <time>2017-01-20T08:46:47Z</time>
      </trkpt>
      <trkpt lat="43.4318" lon="6.52889">
        <ele>121.26</ele>
        <time>2017-01-20T08:46:49Z</time>
      </trkpt>
      <trkpt lat="43.43179" lon="6.52891">
        <ele>123.19</ele>
        <time>2017-01-20T08:46:51Z</time>
      </trkpt>
      <trkpt lat="43.43178" lon="6.52893">
        <ele>123.67</ele>
        <time>2017-01-20T08:47:04Z</time>
      </trkpt>
      <trkpt lat="43.43179" lon="6.52892">
        <ele>123.19</ele>
        <time>2017-01-20T08:47:15Z</time>
      </trkpt>
      <trkpt lat="43.43179" lon="6.52891">
        <ele>123.19</ele>
        <time>2017-01-20T08:47:33Z</time>
      </trkpt>
      <trkpt lat="43.43173" lon="6.52893">
        <ele>123.19</ele>
        <time>2017-01-20T08:47:38Z</time>
      </trkpt>
      <trkpt lat="43.43168" lon="6.52898">
        <ele>124.63</ele>
        <time>2017-01-20T08:47:46Z</time>
      </trkpt>
      <trkpt lat="43.43166" lon="6.52901">
        <ele>125.11</ele>
        <time>2017-01-20T08:47:48Z</time>
      </trkpt>
      <trkpt lat="43.43149" lon="6.52916">
        <ele>126.55</ele>
        <time>2017-01-20T08:48:02Z</time>
      </trkpt>
      <trkpt lat="43.43132" lon="6.5292">
        <ele>128.47</ele>
        <time>2017-01-20T08:48:16Z</time>
      </trkpt>
      <trkpt lat="43.43124" lon="6.52922">
        <ele>128.95</ele>
        <time>2017-01-20T08:48:24Z</time>
      </trkpt>
      <trkpt lat="43.43107" lon="6.52932">
        <ele>129.92</ele>
        <time>2017-01-20T08:48:34Z</time>
      </trkpt>
      <trkpt lat="43.43095" lon="6.52938">
        <ele>131.36</ele>
        <time>2017-01-20T08:48:46Z</time>
      </trkpt>
      <trkpt lat="43.43093" lon="6.52941">
        <ele>132.32</ele>
        <time>2017-01-20T08:48:49Z</time>
      </trkpt>
      <trkpt lat="43.43085" lon="6.52954">
        <ele>133.28</ele>
        <time>2017-01-20T08:48:55Z</time>
      </trkpt>
      <trkpt lat="43.43077" lon="6.52967">
        <ele>134.72</ele>
        <time>2017-01-20T08:49:07Z</time>
      </trkpt>
      <trkpt lat="43.43077" lon="6.52968">
        <ele>135.2</ele>
        <time>2017-01-20T08:49:10Z</time>
      </trkpt>
      <trkpt lat="43.43077" lon="6.52973">
        <ele>135.2</ele>
        <time>2017-01-20T08:49:13Z</time>
      </trkpt>
      <trkpt lat="43.43071" lon="6.52989">
        <ele>135.68</ele>
        <time>2017-01-20T08:49:19Z</time>
      </trkpt>
      <trkpt lat="43.43054" lon="6.52995">
        <ele>136.64</ele>
        <time>2017-01-20T08:49:28Z</time>
      </trkpt>
      <trkpt lat="43.43051" lon="6.52991">
        <ele>137.61</ele>
        <time>2017-01-20T08:49:35Z</time>
      </trkpt>
      <trkpt lat="43.43049" lon="6.52991">
        <ele>137.61</ele>
        <time>2017-01-20T08:49:37Z</time>
      </trkpt>
      <trkpt lat="43.43031" lon="6.52998">
        <ele>138.57</ele>
        <time>2017-01-20T08:49:48Z</time>
      </trkpt>
      <trkpt lat="43.43028" lon="6.53002">
        <ele>139.53</ele>
        <time>2017-01-20T08:49:54Z</time>
      </trkpt>
      <trkpt lat="43.43029" lon="6.53008">
        <ele>140.97</ele>
        <time>2017-01-20T08:49:57Z</time>
      </trkpt>
      <trkpt lat="43.43032" lon="6.5303">
        <ele>141.45</ele>
        <time>2017-01-20T08:50:08Z</time>
      </trkpt>
      <trkpt lat="43.43031" lon="6.53031">
        <ele>141.45</ele>
        <time>2017-01-20T08:50:10Z</time>
      </trkpt>
      <trkpt lat="43.43029" lon="6.53036">
        <ele>141.93</ele>
        <time>2017-01-20T08:50:12Z</time>
      </trkpt>
      <trkpt lat="43.43024" lon="6.53052">
        <ele>142.89</ele>
        <time>2017-01-20T08:50:18Z</time>
      </trkpt>
      <trkpt lat="43.43018" lon="6.53059">
        <ele>144.34</ele>
        <time>2017-01-20T08:50:29Z</time>
      </trkpt>
      <trkpt lat="43.43018" lon="6.53059">
        <ele>144.34</ele>
        <time>2017-01-20T08:50:30Z</time>
      </trkpt>
      <trkpt lat="43.43015" lon="6.53071">
        <ele>145.3</ele>
        <time>2017-01-20T08:50:34Z</time>
      </trkpt>
      <trkpt lat="43.43011" lon="6.53086">
        <ele>146.26</ele>
        <time>2017-01-20T08:50:39Z</time>
      </trkpt>
      <trkpt lat="43.43008" lon="6.53093">
        <ele>147.22</ele>
        <time>2017-01-20T08:50:49Z</time>
      </trkpt>
      <trkpt lat="43.43007" lon="6.531">
        <ele>147.7</ele>
        <time>2017-01-20T08:50:52Z</time>
      </trkpt>
      <trkpt lat="43.43003" lon="6.53122">
        <ele>148.18</ele>
        <time>2017-01-20T08:50:59Z</time>
      </trkpt>
      <trkpt lat="43.42994" lon="6.53128">
        <ele>149.14</ele>
        <time>2017-01-20T08:51:09Z</time>
      </trkpt>
      <trkpt lat="43.42991" lon="6.53135">
        <ele>150.1</ele>
        <time>2017-01-20T08:51:13Z</time>
      </trkpt>
      <trkpt lat="43.4299" lon="6.53139">
        <ele>150.1</ele>
        <time>2017-01-20T08:51:15Z</time>
      </trkpt>
      <trkpt lat="43.42987" lon="6.53144">
        <ele>150.58</ele>
        <time>2017-01-20T08:51:18Z</time>
      </trkpt>
      <trkpt lat="43.42982" lon="6.53172">
        <ele>152.51</ele>
        <time>2017-01-20T08:51:33Z</time>
      </trkpt>
      <trkpt lat="43.42982" lon="6.53171">
        <ele>152.03</ele>
        <time>2017-01-20T08:51:55Z</time>
      </trkpt>
      <trkpt lat="43.42982" lon="6.53173">
        <ele>152.03</ele>
        <time>2017-01-20T08:52:10Z</time>
      </trkpt>
      <trkpt lat="43.42983" lon="6.53175">
        <ele>152.51</ele>
        <time>2017-01-20T08:52:12Z</time>
      </trkpt>
      <trkpt lat="43.4299" lon="6.53196">
        <ele>153.95</ele>
        <time>2017-01-20T08:52:24Z</time>
      </trkpt>
      <trkpt lat="43.42993" lon="6.53205">
        <ele>154.91</ele>
        <time>2017-01-20T08:52:30Z</time>
      </trkpt>
      <trkpt lat="43.42996" lon="6.53215">
        <ele>155.39</ele>
        <time>2017-01-20T08:52:35Z</time>
      </trkpt>
      <trkpt lat="43.42997" lon="6.53219">
        <ele>155.87</ele>
        <time>2017-01-20T08:52:37Z</time>
      </trkpt>
      <trkpt lat="43.42999" lon="6.53228">
        <ele>156.83</ele>
        <time>2017-01-20T08:52:42Z</time>
      </trkpt>
      <trkpt lat="43.43" lon="6.53234">
        <ele>157.79</ele>
        <time>2017-01-20T08:52:46Z</time>
      </trkpt>
      <trkpt lat="43.43008" lon="6.5326">
        <ele>160.68</ele>
        <time>2017-01-20T08:53:01Z</time>
      </trkpt>
      <trkpt lat="43.43008" lon="6.53262">
        <ele>160.68</ele>
        <time>2017-01-20T08:53:02Z</time>
      </trkpt>
      <trkpt lat="43.43013" lon="6.53285">
        <ele>162.12</ele>
        <time>2017-01-20T08:53:15Z</time>
      </trkpt>
      <trkpt lat="43.43016" lon="6.53296">
        <ele>162.6</ele>
        <time>2017-01-20T08:53:21Z</time>
      </trkpt>
      <trkpt lat="43.4301" lon="6.53319">
        <ele>163.56</ele>
        <time>2017-01-20T08:53:34Z</time>
      </trkpt>
      <trkpt lat="43.43009" lon="6.5332">
        <ele>164.04</ele>
        <time>2017-01-20T08:53:35Z</time>
      </trkpt>
      <trkpt lat="43.43005" lon="6.53328">
        <ele>164.52</ele>
        <time>2017-01-20T08:53:41Z</time>
      </trkpt>
      <trkpt lat="43.43002" lon="6.53333">
        <ele>164.52</ele>
        <time>2017-01-20T08:53:45Z</time>
      </trkpt>
      <trkpt lat="43.43" lon="6.53338">
        <ele>165</ele>
        <time>2017-01-20T08:53:48Z</time>
      </trkpt>
      <trkpt lat="43.42997" lon="6.53352">
        <ele>167.41</ele>
        <time>2017-01-20T08:53:57Z</time>
      </trkpt>
      <trkpt lat="43.42993" lon="6.53361">
        <ele>167.41</ele>
        <time>2017-01-20T08:54:02Z</time>
      </trkpt>
      <trkpt lat="43.4299" lon="6.53376">
        <ele>168.37</ele>
        <time>2017-01-20T08:54:11Z</time>
      </trkpt>
      <trkpt lat="43.4299" lon="6.53382">
        <ele>168.85</ele>
        <time>2017-01-20T08:54:14Z</time>
      </trkpt>
      <trkpt lat="43.42988" lon="6.53391">
        <ele>169.33</ele>
        <time>2017-01-20T08:54:19Z</time>
      </trkpt>
      <trkpt lat="43.42988" lon="6.53401">
        <ele>170.29</ele>
        <time>2017-01-20T08:54:25Z</time>
      </trkpt>
      <trkpt lat="43.42988" lon="6.53404">
        <ele>170.29</ele>
        <time>2017-01-20T08:54:27Z</time>
      </trkpt>
      <trkpt lat="43.42987" lon="6.53427">
        <ele>171.73</ele>
        <time>2017-01-20T08:54:40Z</time>
      </trkpt>
      <trkpt lat="43.42989" lon="6.53437">
        <ele>173.66</ele>
        <time>2017-01-20T08:54:48Z</time>
      </trkpt>
      <trkpt lat="43.42989" lon="6.53441">
        <ele>173.17</ele>
        <time>2017-01-20T08:54:50Z</time>
      </trkpt>
      <trkpt lat="43.42974" lon="6.53461">
        <ele>174.62</ele>
        <time>2017-01-20T08:55:04Z</time>
      </trkpt>
      <trkpt lat="43.42968" lon="6.5346">
        <ele>175.1</ele>
        <time>2017-01-20T08:55:18Z</time>
      </trkpt>
      <trkpt lat="43.42968" lon="6.53459">
        <ele>175.1</ele>
        <time>2017-01-20T08:55:21Z</time>
      </trkpt>
      <trkpt lat="43.42952" lon="6.53459">
        <ele>176.06</ele>
        <time>2017-01-20T08:55:34Z</time>
      </trkpt>
      <trkpt lat="43.42946" lon="6.53457">
        <ele>176.54</ele>
        <time>2017-01-20T08:55:38Z</time>
      </trkpt>
      <trkpt lat="43.42927" lon="6.53452">
        <ele>177.98</ele>
        <time>2017-01-20T08:55:51Z</time>
      </trkpt>
      <trkpt lat="43.42911" lon="6.53445">
        <ele>178.94</ele>
        <time>2017-01-20T08:56:04Z</time>
      </trkpt>
      <trkpt lat="43.42893" lon="6.53439">
        <ele>180.38</ele>
        <time>2017-01-20T08:56:17Z</time>
      </trkpt>
      <trkpt lat="43.4289" lon="6.53436">
        <ele>180.87</ele>
        <time>2017-01-20T08:56:20Z</time>
      </trkpt>
      <trkpt lat="43.42877" lon="6.53414">
        <ele>182.79</ele>
        <time>2017-01-20T08:56:35Z</time>
      </trkpt>
      <trkpt lat="43.42867" lon="6.534">
        <ele>183.75</ele>
        <time>2017-01-20T08:56:45Z</time>
      </trkpt>
      <trkpt lat="43.42853" lon="6.53387">
        <ele>186.15</ele>
        <time>2017-01-20T08:56:58Z</time>
      </trkpt>
      <trkpt lat="43.42845" lon="6.5338">
        <ele>186.15</ele>
        <time>2017-01-20T08:57:03Z</time>
      </trkpt>
      <trkpt lat="43.42837" lon="6.53366">
        <ele>190.48</ele>
        <time>2017-01-20T08:57:13Z</time>
      </trkpt>
      <trkpt lat="43.42834" lon="6.53361">
        <ele>188.08</ele>
        <time>2017-01-20T08:57:18Z</time>
      </trkpt>
      <trkpt lat="43.42829" lon="6.53353">
        <ele>189.52</ele>
        <time>2017-01-20T08:57:25Z</time>
      </trkpt>
      <trkpt lat="43.42818" lon="6.53343">
        <ele>190.48</ele>
        <time>2017-01-20T08:57:38Z</time>
      </trkpt>
      <trkpt lat="43.42816" lon="6.53343">
        <ele>190.48</ele>
        <time>2017-01-20T08:57:41Z</time>
      </trkpt>
      <trkpt lat="43.42803" lon="6.53353">
        <ele>192.4</ele>
        <time>2017-01-20T08:57:54Z</time>
      </trkpt>
      <trkpt lat="43.42787" lon="6.53356">
        <ele>193.36</ele>
        <time>2017-01-20T08:58:07Z</time>
      </trkpt>
      <trkpt lat="43.42764" lon="6.53351">
        <ele>195.28</ele>
        <time>2017-01-20T08:58:24Z</time>
      </trkpt>
      <trkpt lat="43.42763" lon="6.53351">
        <ele>195.77</ele>
        <time>2017-01-20T08:58:26Z</time>
      </trkpt>
      <trkpt lat="43.42747" lon="6.53345">
        <ele>196.73</ele>
        <time>2017-01-20T08:58:37Z</time>
      </trkpt>
      <trkpt lat="43.42729" lon="6.53341">
        <ele>201.05</ele>
        <time>2017-01-20T08:58:49Z</time>
      </trkpt>
      <trkpt lat="43.42729" lon="6.53341">
        <ele>196.73</ele>
        <time>2017-01-20T08:58:50Z</time>
      </trkpt>
      <trkpt lat="43.42727" lon="6.53341">
        <ele>198.65</ele>
        <time>2017-01-20T08:58:51Z</time>
      </trkpt>
      <trkpt lat="43.42712" lon="6.53341">
        <ele>199.61</ele>
        <time>2017-01-20T08:59:05Z</time>
      </trkpt>
      <trkpt lat="43.42707" lon="6.53341">
        <ele>199.61</ele>
        <time>2017-01-20T08:59:09Z</time>
      </trkpt>
      <trkpt lat="43.42688" lon="6.53348">
        <ele>201.53</ele>
        <time>2017-01-20T08:59:24Z</time>
      </trkpt>
      <trkpt lat="43.42679" lon="6.53351">
        <ele>202.98</ele>
        <time>2017-01-20T08:59:33Z</time>
      </trkpt>
      <trkpt lat="43.42675" lon="6.53351">
        <ele>203.46</ele>
        <time>2017-01-20T08:59:36Z</time>
      </trkpt>
      <trkpt lat="43.42664" lon="6.53347">
        <ele>203.46</ele>
        <time>2017-01-20T08:59:44Z</time>
      </trkpt>
      <trkpt lat="43.42661" lon="6.53345">
        <ele>203.46</ele>
        <time>2017-01-20T08:59:46Z</time>
      </trkpt>
      <trkpt lat="43.42651" lon="6.53335">
        <ele>204.9</ele>
        <time>2017-01-20T08:59:56Z</time>
      </trkpt>
      <trkpt lat="43.42646" lon="6.53333">
        <ele>205.38</ele>
        <time>2017-01-20T09:00:00Z</time>
      </trkpt>
      <trkpt lat="43.42629" lon="6.53328">
        <ele>206.82</ele>
        <time>2017-01-20T09:00:14Z</time>
      </trkpt>
      <trkpt lat="43.42611" lon="6.53327">
        <ele>208.26</ele>
        <time>2017-01-20T09:00:28Z</time>
      </trkpt>
      <trkpt lat="43.42608" lon="6.53327">
        <ele>208.74</ele>
        <time>2017-01-20T09:00:31Z</time>
      </trkpt>
      <trkpt lat="43.42587" lon="6.53327">
        <ele>210.67</ele>
        <time>2017-01-20T09:00:46Z</time>
      </trkpt>
      <trkpt lat="43.42572" lon="6.53328">
        <ele>211.63</ele>
        <time>2017-01-20T09:00:58Z</time>
      </trkpt>
      <trkpt lat="43.42571" lon="6.53328">
        <ele>211.63</ele>
        <time>2017-01-20T09:00:59Z</time>
      </trkpt>
      <trkpt lat="43.4256" lon="6.53329">
        <ele>213.07</ele>
        <time>2017-01-20T09:01:08Z</time>
      </trkpt>
      <trkpt lat="43.4254" lon="6.53345">
        <ele>215.47</ele>
        <time>2017-01-20T09:01:25Z</time>
      </trkpt>
      <trkpt lat="43.42524" lon="6.5336">
        <ele>216.91</ele>
        <time>2017-01-20T09:01:39Z</time>
      </trkpt>
      <trkpt lat="43.42508" lon="6.53375">
        <ele>218.84</ele>
        <time>2017-01-20T09:01:53Z</time>
      </trkpt>
      <trkpt lat="43.42493" lon="6.53387">
        <ele>220.28</ele>
        <time>2017-01-20T09:02:05Z</time>
      </trkpt>
      <trkpt lat="43.42476" lon="6.53411">
        <ele>223.16</ele>
        <time>2017-01-20T09:02:22Z</time>
      </trkpt>
      <trkpt lat="43.42473" lon="6.53416">
        <ele>223.16</ele>
        <time>2017-01-20T09:02:25Z</time>
      </trkpt>
      <trkpt lat="43.42466" lon="6.5343">
        <ele>223.16</ele>
        <time>2017-01-20T09:02:34Z</time>
      </trkpt>
      <trkpt lat="43.42461" lon="6.53439">
        <ele>223.64</ele>
        <time>2017-01-20T09:02:40Z</time>
      </trkpt>
      <trkpt lat="43.42457" lon="6.53445">
        <ele>224.12</ele>
        <time>2017-01-20T09:02:44Z</time>
      </trkpt>
      <trkpt lat="43.42452" lon="6.5345">
        <ele>224.12</ele>
        <time>2017-01-20T09:02:48Z</time>
      </trkpt>
      <trkpt lat="43.42437" lon="6.5346">
        <ele>224.12</ele>
        <time>2017-01-20T09:03:00Z</time>
      </trkpt>
      <trkpt lat="43.42433" lon="6.53465">
        <ele>224.12</ele>
        <time>2017-01-20T09:03:04Z</time>
      </trkpt>
      <trkpt lat="43.42424" lon="6.5348">
        <ele>223.64</ele>
        <time>2017-01-20T09:03:16Z</time>
      </trkpt>
      <trkpt lat="43.42422" lon="6.53482">
        <ele>223.64</ele>
        <time>2017-01-20T09:03:18Z</time>
      </trkpt>
      <trkpt lat="43.42416" lon="6.5349">
        <ele>223.64</ele>
        <time>2017-01-20T09:03:34Z</time>
      </trkpt>
      <trkpt lat="43.42419" lon="6.5349">
        <ele>224.12</ele>
        <time>2017-01-20T09:03:45Z</time>
      </trkpt>
      <trkpt lat="43.42418" lon="6.53493">
        <ele>223.64</ele>
        <time>2017-01-20T09:03:55Z</time>
      </trkpt>
      <trkpt lat="43.42417" lon="6.53492">
        <ele>224.12</ele>
        <time>2017-01-20T09:04:11Z</time>
      </trkpt>
      <trkpt lat="43.42417" lon="6.53493">
        <ele>224.12</ele>
        <time>2017-01-20T09:04:27Z</time>
      </trkpt>
      <trkpt lat="43.42417" lon="6.53493">
        <ele>224.12</ele>
        <time>2017-01-20T09:04:45Z</time>
      </trkpt>
      <trkpt lat="43.42417" lon="6.53492">
        <ele>223.64</ele>
        <time>2017-01-20T09:04:51Z</time>
      </trkpt>
      <trkpt lat="43.42412" lon="6.53482">
        <ele>223.64</ele>
        <time>2017-01-20T09:04:58Z</time>
      </trkpt>
      <trkpt lat="43.42403" lon="6.53468">
        <ele>223.16</ele>
        <time>2017-01-20T09:05:10Z</time>
      </trkpt>
      <trkpt lat="43.42395" lon="6.53456">
        <ele>221.72</ele>
        <time>2017-01-20T09:05:20Z</time>
      </trkpt>
      <trkpt lat="43.42392" lon="6.53451">
        <ele>222.2</ele>
        <time>2017-01-20T09:05:33Z</time>
      </trkpt>
      <trkpt lat="43.42391" lon="6.5345">
        <ele>221.72</ele>
        <time>2017-01-20T09:05:56Z</time>
      </trkpt>
      <trkpt lat="43.4239" lon="6.53451">
        <ele>221.72</ele>
        <time>2017-01-20T09:06:33Z</time>
      </trkpt>
      <trkpt lat="43.42384" lon="6.53442">
        <ele>220.28</ele>
        <time>2017-01-20T09:06:45Z</time>
      </trkpt>
      <trkpt lat="43.42383" lon="6.53441">
        <ele>220.28</ele>
        <time>2017-01-20T09:06:46Z</time>
      </trkpt>
      <trkpt lat="43.42381" lon="6.53439">
        <ele>220.28</ele>
        <time>2017-01-20T09:06:48Z</time>
      </trkpt>
      <trkpt lat="43.42371" lon="6.53427">
        <ele>219.8</ele>
        <time>2017-01-20T09:06:57Z</time>
      </trkpt>
      <trkpt lat="43.42367" lon="6.53424">
        <ele>219.32</ele>
        <time>2017-01-20T09:07:02Z</time>
      </trkpt>
      <trkpt lat="43.42362" lon="6.53418">
        <ele>218.84</ele>
        <time>2017-01-20T09:07:08Z</time>
      </trkpt>
      <trkpt lat="43.42358" lon="6.53411">
        <ele>218.84</ele>
        <time>2017-01-20T09:07:12Z</time>
      </trkpt>
      <trkpt lat="43.42354" lon="6.53408">
        <ele>218.36</ele>
        <time>2017-01-20T09:07:15Z</time>
      </trkpt>
      <trkpt lat="43.42349" lon="6.53404">
        <ele>218.36</ele>
        <time>2017-01-20T09:07:21Z</time>
      </trkpt>
      <trkpt lat="43.42341" lon="6.53398">
        <ele>217.88</ele>
        <time>2017-01-20T09:07:33Z</time>
      </trkpt>
      <trkpt lat="43.42339" lon="6.53389">
        <ele>217.4</ele>
        <time>2017-01-20T09:07:44Z</time>
      </trkpt>
      <trkpt lat="43.42335" lon="6.53388">
        <ele>217.4</ele>
        <time>2017-01-20T09:07:53Z</time>
      </trkpt>
      <trkpt lat="43.42329" lon="6.53386">
        <ele>217.4</ele>
        <time>2017-01-20T09:07:58Z</time>
      </trkpt>
      <trkpt lat="43.42319" lon="6.53381">
        <ele>215.95</ele>
        <time>2017-01-20T09:08:08Z</time>
      </trkpt>
      <trkpt lat="43.42303" lon="6.5337">
        <ele>215.47</ele>
        <time>2017-01-20T09:08:22Z</time>
      </trkpt>
      <trkpt lat="43.42289" lon="6.53357">
        <ele>214.51</ele>
        <time>2017-01-20T09:08:35Z</time>
      </trkpt>
      <trkpt lat="43.42286" lon="6.53355">
        <ele>214.51</ele>
        <time>2017-01-20T09:08:37Z</time>
      </trkpt>
      <trkpt lat="43.42264" lon="6.53352">
        <ele>213.55</ele>
        <time>2017-01-20T09:08:53Z</time>
      </trkpt>
      <trkpt lat="43.42245" lon="6.53347">
        <ele>212.11</ele>
        <time>2017-01-20T09:09:07Z</time>
      </trkpt>
      <trkpt lat="43.42241" lon="6.53345">
        <ele>212.11</ele>
        <time>2017-01-20T09:09:10Z</time>
      </trkpt>
      <trkpt lat="43.42236" lon="6.5334">
        <ele>211.63</ele>
        <time>2017-01-20T09:09:15Z</time>
      </trkpt>
      <trkpt lat="43.42228" lon="6.53319">
        <ele>210.19</ele>
        <time>2017-01-20T09:09:26Z</time>
      </trkpt>
      <trkpt lat="43.42228" lon="6.53317">
        <ele>210.19</ele>
        <time>2017-01-20T09:09:27Z</time>
      </trkpt>
      <trkpt lat="43.42225" lon="6.53305">
        <ele>209.7</ele>
        <time>2017-01-20T09:09:33Z</time>
      </trkpt>
      <trkpt lat="43.42223" lon="6.53298">
        <ele>209.22</ele>
        <time>2017-01-20T09:09:37Z</time>
      </trkpt>
      <trkpt lat="43.42222" lon="6.53289">
        <ele>208.74</ele>
        <time>2017-01-20T09:09:41Z</time>
      </trkpt>
      <trkpt lat="43.42217" lon="6.53281">
        <ele>208.26</ele>
        <time>2017-01-20T09:09:47Z</time>
      </trkpt>
      <trkpt lat="43.42214" lon="6.53273">
        <ele>207.78</ele>
        <time>2017-01-20T09:09:52Z</time>
      </trkpt>
      <trkpt lat="43.42208" lon="6.53246">
        <ele>206.34</ele>
        <time>2017-01-20T09:10:06Z</time>
      </trkpt>
      <trkpt lat="43.42207" lon="6.53243">
        <ele>202.01</ele>
        <time>2017-01-20T09:10:08Z</time>
      </trkpt>
      <trkpt lat="43.42206" lon="6.53242">
        <ele>210.19</ele>
        <time>2017-01-20T09:10:09Z</time>
      </trkpt>
      <trkpt lat="43.42206" lon="6.53241">
        <ele>204.9</ele>
        <time>2017-01-20T09:10:10Z</time>
      </trkpt>
      <trkpt lat="43.42203" lon="6.53236">
        <ele>202.49</ele>
        <time>2017-01-20T09:10:13Z</time>
      </trkpt>
      <trkpt lat="43.42198" lon="6.5323">
        <ele>204.42</ele>
        <time>2017-01-20T09:10:18Z</time>
      </trkpt>
      <trkpt lat="43.42196" lon="6.53227">
        <ele>203.46</ele>
        <time>2017-01-20T09:10:20Z</time>
      </trkpt>
      <trkpt lat="43.42182" lon="6.53214">
        <ele>202.01</ele>
        <time>2017-01-20T09:10:33Z</time>
      </trkpt>
      <trkpt lat="43.42167" lon="6.53197">
        <ele>200.57</ele>
        <time>2017-01-20T09:10:47Z</time>
      </trkpt>
      <trkpt lat="43.42149" lon="6.53199">
        <ele>198.65</ele>
        <time>2017-01-20T09:11:01Z</time>
      </trkpt>
      <trkpt lat="43.42127" lon="6.53202">
        <ele>196.73</ele>
        <time>2017-01-20T09:11:16Z</time>
      </trkpt>
      <trkpt lat="43.42109" lon="6.53204">
        <ele>195.77</ele>
        <time>2017-01-20T09:11:29Z</time>
      </trkpt>
      <trkpt lat="43.42093" lon="6.5321">
        <ele>194.8</ele>
        <time>2017-01-20T09:11:41Z</time>
      </trkpt>
      <trkpt lat="43.42085" lon="6.5321">
        <ele>190</ele>
        <time>2017-01-20T09:11:45Z</time>
      </trkpt>
      <trkpt lat="43.42084" lon="6.53209">
        <ele>198.17</ele>
        <time>2017-01-20T09:11:46Z</time>
      </trkpt>
      <trkpt lat="43.42081" lon="6.53206">
        <ele>195.28</ele>
        <time>2017-01-20T09:11:49Z</time>
      </trkpt>
      <trkpt lat="43.4208" lon="6.53205">
        <ele>195.28</ele>
        <time>2017-01-20T09:11:50Z</time>
      </trkpt>
      <trkpt lat="43.42072" lon="6.53195">
        <ele>195.28</ele>
        <time>2017-01-20T09:11:57Z</time>
      </trkpt>
      <trkpt lat="43.42063" lon="6.53185">
        <ele>194.8</ele>
        <time>2017-01-20T09:12:05Z</time>
      </trkpt>
      <trkpt lat="43.42056" lon="6.53179">
        <ele>194.8</ele>
        <time>2017-01-20T09:12:15Z</time>
      </trkpt>
      <trkpt lat="43.42054" lon="6.53179">
        <ele>194.8</ele>
        <time>2017-01-20T09:12:17Z</time>
      </trkpt>
      <trkpt lat="43.42051" lon="6.53164">
        <ele>193.84</ele>
        <time>2017-01-20T09:12:26Z</time>
      </trkpt>
      <trkpt lat="43.42052" lon="6.53157">
        <ele>193.36</ele>
        <time>2017-01-20T09:12:30Z</time>
      </trkpt>
      <trkpt lat="43.42052" lon="6.53151">
        <ele>192.88</ele>
        <time>2017-01-20T09:12:33Z</time>
      </trkpt>
      <trkpt lat="43.42047" lon="6.53125">
        <ele>191.44</ele>
        <time>2017-01-20T09:12:46Z</time>
      </trkpt>
      <trkpt lat="43.42046" lon="6.53122">
        <ele>190.96</ele>
        <time>2017-01-20T09:12:48Z</time>
      </trkpt>
      <trkpt lat="43.42042" lon="6.53116">
        <ele>190.96</ele>
        <time>2017-01-20T09:12:52Z</time>
      </trkpt>
      <trkpt lat="43.42035" lon="6.53109">
        <ele>190.48</ele>
        <time>2017-01-20T09:12:58Z</time>
      </trkpt>
      <trkpt lat="43.42024" lon="6.53098">
        <ele>189.52</ele>
        <time>2017-01-20T09:13:08Z</time>
      </trkpt>
      <trkpt lat="43.42008" lon="6.53083">
        <ele>187.59</ele>
        <time>2017-01-20T09:13:21Z</time>
      </trkpt>
      <trkpt lat="43.41993" lon="6.53075">
        <ele>186.63</ele>
        <time>2017-01-20T09:13:33Z</time>
      </trkpt>
      <trkpt lat="43.41982" lon="6.53075">
        <ele>186.15</ele>
        <time>2017-01-20T09:13:41Z</time>
      </trkpt>
      <trkpt lat="43.41967" lon="6.53075">
        <ele>184.23</ele>
        <time>2017-01-20T09:13:50Z</time>
      </trkpt>
      <trkpt lat="43.41943" lon="6.53071">
        <ele>182.79</ele>
        <time>2017-01-20T09:14:07Z</time>
      </trkpt>
      <trkpt lat="43.4192" lon="6.53083">
        <ele>183.27</ele>
        <time>2017-01-20T09:14:23Z</time>
      </trkpt>
      <trkpt lat="43.41898" lon="6.53098">
        <ele>182.79</ele>
        <time>2017-01-20T09:14:40Z</time>
      </trkpt>
      <trkpt lat="43.41879" lon="6.53095">
        <ele>182.79</ele>
        <time>2017-01-20T09:14:55Z</time>
      </trkpt>
      <trkpt lat="43.41875" lon="6.53091">
        <ele>182.79</ele>
        <time>2017-01-20T09:14:58Z</time>
      </trkpt>
      <trkpt lat="43.4187" lon="6.53085">
        <ele>182.31</ele>
        <time>2017-01-20T09:15:02Z</time>
      </trkpt>
      <trkpt lat="43.41854" lon="6.53067">
        <ele>182.31</ele>
        <time>2017-01-20T09:15:16Z</time>
      </trkpt>
      <trkpt lat="43.41837" lon="6.53073">
        <ele>183.27</ele>
        <time>2017-01-20T09:15:31Z</time>
      </trkpt>
      <trkpt lat="43.41824" lon="6.5309">
        <ele>183.75</ele>
        <time>2017-01-20T09:15:43Z</time>
      </trkpt>
      <trkpt lat="43.41812" lon="6.53097">
        <ele>184.71</ele>
        <time>2017-01-20T09:15:52Z</time>
      </trkpt>
      <trkpt lat="43.41809" lon="6.53098">
        <ele>184.23</ele>
        <time>2017-01-20T09:15:54Z</time>
      </trkpt>
      <trkpt lat="43.41806" lon="6.53096">
        <ele>184.23</ele>
        <time>2017-01-20T09:16:08Z</time>
      </trkpt>
      <trkpt lat="43.41802" lon="6.53094">
        <ele>184.23</ele>
        <time>2017-01-20T09:16:21Z</time>
      </trkpt>
      <trkpt lat="43.41789" lon="6.53086">
        <ele>183.27</ele>
        <time>2017-01-20T09:16:35Z</time>
      </trkpt>
      <trkpt lat="43.41787" lon="6.53085">
        <ele>185.67</ele>
        <time>2017-01-20T09:16:37Z</time>
      </trkpt>
      <trkpt lat="43.41782" lon="6.53082">
        <ele>182.79</ele>
        <time>2017-01-20T09:16:41Z</time>
      </trkpt>
      <trkpt lat="43.41777" lon="6.53078">
        <ele>178.94</ele>
        <time>2017-01-20T09:16:46Z</time>
      </trkpt>
      <trkpt lat="43.41777" lon="6.53076">
        <ele>185.19</ele>
        <time>2017-01-20T09:16:47Z</time>
      </trkpt>
      <trkpt lat="43.41774" lon="6.53074">
        <ele>182.31</ele>
        <time>2017-01-20T09:16:49Z</time>
      </trkpt>
      <trkpt lat="43.41771" lon="6.53064">
        <ele>181.83</ele>
        <time>2017-01-20T09:16:54Z</time>
      </trkpt>
      <trkpt lat="43.41757" lon="6.53046">
        <ele>180.38</ele>
        <time>2017-01-20T09:17:10Z</time>
      </trkpt>
      <trkpt lat="43.41747" lon="6.53037">
        <ele>179.42</ele>
        <time>2017-01-20T09:17:21Z</time>
      </trkpt>
      <trkpt lat="43.41746" lon="6.53034">
        <ele>179.42</ele>
        <time>2017-01-20T09:17:23Z</time>
      </trkpt>
      <trkpt lat="43.41735" lon="6.53017">
        <ele>178.94</ele>
        <time>2017-01-20T09:17:35Z</time>
      </trkpt>
      <trkpt lat="43.41733" lon="6.53015">
        <ele>178.46</ele>
        <time>2017-01-20T09:17:37Z</time>
      </trkpt>
      <trkpt lat="43.41714" lon="6.52993">
        <ele>177.02</ele>
        <time>2017-01-20T09:17:55Z</time>
      </trkpt>
      <trkpt lat="43.41694" lon="6.52985">
        <ele>176.54</ele>
        <time>2017-01-20T09:18:12Z</time>
      </trkpt>
      <trkpt lat="43.41672" lon="6.52991">
        <ele>174.62</ele>
        <time>2017-01-20T09:18:30Z</time>
      </trkpt>
      <trkpt lat="43.41658" lon="6.53007">
        <ele>174.14</ele>
        <time>2017-01-20T09:18:44Z</time>
      </trkpt>
      <trkpt lat="43.41658" lon="6.53007">
        <ele>174.14</ele>
        <time>2017-01-20T09:18:55Z</time>
      </trkpt>
      <trkpt lat="43.41653" lon="6.53013">
        <ele>174.62</ele>
        <time>2017-01-20T09:19:10Z</time>
      </trkpt>
      <trkpt lat="43.41653" lon="6.53014">
        <ele>174.62</ele>
        <time>2017-01-20T09:19:13Z</time>
      </trkpt>
      <trkpt lat="43.41639" lon="6.53019">
        <ele>174.62</ele>
        <time>2017-01-20T09:19:24Z</time>
      </trkpt>
      <trkpt lat="43.41618" lon="6.53016">
        <ele>174.14</ele>
        <time>2017-01-20T09:19:40Z</time>
      </trkpt>
      <trkpt lat="43.41594" lon="6.53015">
        <ele>173.66</ele>
        <time>2017-01-20T09:19:57Z</time>
      </trkpt>
      <trkpt lat="43.41593" lon="6.53015">
        <ele>173.66</ele>
        <time>2017-01-20T09:19:58Z</time>
      </trkpt>
      <trkpt lat="43.41585" lon="6.53019">
        <ele>173.66</ele>
        <time>2017-01-20T09:20:04Z</time>
      </trkpt>
      <trkpt lat="43.41582" lon="6.53021">
        <ele>173.66</ele>
        <time>2017-01-20T09:20:06Z</time>
      </trkpt>
      <trkpt lat="43.41559" lon="6.53036">
        <ele>175.1</ele>
        <time>2017-01-20T09:20:22Z</time>
      </trkpt>
      <trkpt lat="43.41542" lon="6.53049">
        <ele>175.1</ele>
        <time>2017-01-20T09:20:38Z</time>
      </trkpt>
      <trkpt lat="43.4154" lon="6.5305">
        <ele>175.1</ele>
        <time>2017-01-20T09:20:41Z</time>
      </trkpt>
      <trkpt lat="43.41536" lon="6.53052">
        <ele>175.1</ele>
        <time>2017-01-20T09:20:44Z</time>
      </trkpt>
      <trkpt lat="43.4151" lon="6.53052">
        <ele>175.1</ele>
        <time>2017-01-20T09:20:58Z</time>
      </trkpt>
      <trkpt lat="43.41484" lon="6.53031">
        <ele>174.62</ele>
        <time>2017-01-20T09:21:14Z</time>
      </trkpt>
      <trkpt lat="43.4146" lon="6.53023">
        <ele>174.62</ele>
        <time>2017-01-20T09:21:31Z</time>
      </trkpt>
      <trkpt lat="43.41444" lon="6.53015">
        <ele>174.62</ele>
        <time>2017-01-20T09:21:46Z</time>
      </trkpt>
      <trkpt lat="43.41419" lon="6.53001">
        <ele>175.58</ele>
        <time>2017-01-20T09:22:05Z</time>
      </trkpt>
      <trkpt lat="43.41395" lon="6.52993">
        <ele>174.62</ele>
        <time>2017-01-20T09:22:21Z</time>
      </trkpt>
      <trkpt lat="43.4137" lon="6.53006">
        <ele>175.1</ele>
        <time>2017-01-20T09:22:36Z</time>
      </trkpt>
      <trkpt lat="43.41363" lon="6.53017">
        <ele>175.1</ele>
        <time>2017-01-20T09:22:49Z</time>
      </trkpt>
      <trkpt lat="43.41365" lon="6.53021">
        <ele>175.58</ele>
        <time>2017-01-20T09:23:03Z</time>
      </trkpt>
      <trkpt lat="43.41367" lon="6.53018">
        <ele>176.06</ele>
        <time>2017-01-20T09:23:17Z</time>
      </trkpt>
      <trkpt lat="43.41367" lon="6.53019">
        <ele>176.54</ele>
        <time>2017-01-20T09:23:31Z</time>
      </trkpt>
      <trkpt lat="43.41367" lon="6.53019">
        <ele>176.54</ele>
        <time>2017-01-20T09:23:35Z</time>
      </trkpt>
      <trkpt lat="43.41366" lon="6.53026">
        <ele>175.58</ele>
        <time>2017-01-20T09:23:39Z</time>
      </trkpt>
      <trkpt lat="43.41371" lon="6.53048">
        <ele>176.06</ele>
        <time>2017-01-20T09:23:54Z</time>
      </trkpt>
      <trkpt lat="43.41371" lon="6.53047">
        <ele>176.06</ele>
        <time>2017-01-20T09:23:57Z</time>
      </trkpt>
      <trkpt lat="43.41384" lon="6.53074">
        <ele>176.06</ele>
        <time>2017-01-20T09:24:11Z</time>
      </trkpt>
      <trkpt lat="43.41395" lon="6.53102">
        <ele>177.5</ele>
        <time>2017-01-20T09:24:26Z</time>
      </trkpt>
      <trkpt lat="43.41401" lon="6.53125">
        <ele>177.98</ele>
        <time>2017-01-20T09:24:39Z</time>
      </trkpt>
      <trkpt lat="43.41403" lon="6.53147">
        <ele>178.46</ele>
        <time>2017-01-20T09:24:57Z</time>
      </trkpt>
      <trkpt lat="43.41402" lon="6.53154">
        <ele>178.94</ele>
        <time>2017-01-20T09:25:01Z</time>
      </trkpt>
      <trkpt lat="43.41398" lon="6.5316">
        <ele>178.94</ele>
        <time>2017-01-20T09:25:05Z</time>
      </trkpt>
      <trkpt lat="43.41374" lon="6.53174">
        <ele>180.38</ele>
        <time>2017-01-20T09:25:24Z</time>
      </trkpt>
      <trkpt lat="43.41365" lon="6.53178">
        <ele>179.9</ele>
        <time>2017-01-20T09:25:32Z</time>
      </trkpt>
      <trkpt lat="43.41341" lon="6.53189">
        <ele>180.87</ele>
        <time>2017-01-20T09:25:48Z</time>
      </trkpt>
      <trkpt lat="43.41329" lon="6.532">
        <ele>181.35</ele>
        <time>2017-01-20T09:25:58Z</time>
      </trkpt>
      <trkpt lat="43.41322" lon="6.5323">
        <ele>181.35</ele>
        <time>2017-01-20T09:26:15Z</time>
      </trkpt>
      <trkpt lat="43.41336" lon="6.53255">
        <ele>182.31</ele>
        <time>2017-01-20T09:26:29Z</time>
      </trkpt>
      <trkpt lat="43.4134" lon="6.5326">
        <ele>182.79</ele>
        <time>2017-01-20T09:26:33Z</time>
      </trkpt>
      <trkpt lat="43.41351" lon="6.53286">
        <ele>182.79</ele>
        <time>2017-01-20T09:26:52Z</time>
      </trkpt>
      <trkpt lat="43.41361" lon="6.53316">
        <ele>182.79</ele>
        <time>2017-01-20T09:27:10Z</time>
      </trkpt>
      <trkpt lat="43.41344" lon="6.53328">
        <ele>183.75</ele>
        <time>2017-01-20T09:27:24Z</time>
      </trkpt>
      <trkpt lat="43.41323" lon="6.53336">
        <ele>184.71</ele>
        <time>2017-01-20T09:27:40Z</time>
      </trkpt>
      <trkpt lat="43.41303" lon="6.53347">
        <ele>185.19</ele>
        <time>2017-01-20T09:27:55Z</time>
      </trkpt>
      <trkpt lat="43.41286" lon="6.53369">
        <ele>184.71</ele>
        <time>2017-01-20T09:28:12Z</time>
      </trkpt>
      <trkpt lat="43.41281" lon="6.53402">
        <ele>185.19</ele>
        <time>2017-01-20T09:28:28Z</time>
      </trkpt>
      <trkpt lat="43.4128" lon="6.53442">
        <ele>184.71</ele>
        <time>2017-01-20T09:28:49Z</time>
      </trkpt>
      <trkpt lat="43.41268" lon="6.53452">
        <ele>184.23</ele>
        <time>2017-01-20T09:28:59Z</time>
      </trkpt>
      <trkpt lat="43.4125" lon="6.53454">
        <ele>184.23</ele>
        <time>2017-01-20T09:29:12Z</time>
      </trkpt>
      <trkpt lat="43.41248" lon="6.53453">
        <ele>184.23</ele>
        <time>2017-01-20T09:29:14Z</time>
      </trkpt>
      <trkpt lat="43.41239" lon="6.53444">
        <ele>183.75</ele>
        <time>2017-01-20T09:29:24Z</time>
      </trkpt>
      <trkpt lat="43.41203" lon="6.53425">
        <ele>184.71</ele>
        <time>2017-01-20T09:29:49Z</time>
      </trkpt>
      <trkpt lat="43.4118" lon="6.53424">
        <ele>184.71</ele>
        <time>2017-01-20T09:30:07Z</time>
      </trkpt>
      <trkpt lat="43.41177" lon="6.53414">
        <ele>184.71</ele>
        <time>2017-01-20T09:30:12Z</time>
      </trkpt>
      <trkpt lat="43.41173" lon="6.53374">
        <ele>184.71</ele>
        <time>2017-01-20T09:30:29Z</time>
      </trkpt>
      <trkpt lat="43.4117" lon="6.53345">
        <ele>184.23</ele>
        <time>2017-01-20T09:30:44Z</time>
      </trkpt>
      <trkpt lat="43.41171" lon="6.53324">
        <ele>183.27</ele>
        <time>2017-01-20T09:30:56Z</time>
      </trkpt>
      <trkpt lat="43.41169" lon="6.53317">
        <ele>182.79</ele>
        <time>2017-01-20T09:31:00Z</time>
      </trkpt>
      <trkpt lat="43.41149" lon="6.53286">
        <ele>182.79</ele>
        <time>2017-01-20T09:31:21Z</time>
      </trkpt>
      <trkpt lat="43.41134" lon="6.53264">
        <ele>183.27</ele>
        <time>2017-01-20T09:31:37Z</time>
      </trkpt>
      <trkpt lat="43.41113" lon="6.53243">
        <ele>182.79</ele>
        <time>2017-01-20T09:31:55Z</time>
      </trkpt>
      <trkpt lat="43.41094" lon="6.53263">
        <ele>183.27</ele>
        <time>2017-01-20T09:32:12Z</time>
      </trkpt>
      <trkpt lat="43.41068" lon="6.53302">
        <ele>183.27</ele>
        <time>2017-01-20T09:32:38Z</time>
      </trkpt>
      <trkpt lat="43.41057" lon="6.53325">
        <ele>186.63</ele>
        <time>2017-01-20T09:32:52Z</time>
      </trkpt>
      <trkpt lat="43.41045" lon="6.53354">
        <ele>182.79</ele>
        <time>2017-01-20T09:33:09Z</time>
      </trkpt>
      <trkpt lat="43.41044" lon="6.53355">
        <ele>179.9</ele>
        <time>2017-01-20T09:33:10Z</time>
      </trkpt>
      <trkpt lat="43.41043" lon="6.53356">
        <ele>184.23</ele>
        <time>2017-01-20T09:33:11Z</time>
      </trkpt>
      <trkpt lat="43.41026" lon="6.53372">
        <ele>185.19</ele>
        <time>2017-01-20T09:33:24Z</time>
      </trkpt>
      <trkpt lat="43.41009" lon="6.53389">
        <ele>185.19</ele>
        <time>2017-01-20T09:33:39Z</time>
      </trkpt>
      <trkpt lat="43.41002" lon="6.53405">
        <ele>184.71</ele>
        <time>2017-01-20T09:33:49Z</time>
      </trkpt>
      <trkpt lat="43.40983" lon="6.53429">
        <ele>185.19</ele>
        <time>2017-01-20T09:34:04Z</time>
      </trkpt>
      <trkpt lat="43.40965" lon="6.53441">
        <ele>185.67</ele>
        <time>2017-01-20T09:34:16Z</time>
      </trkpt>
      <trkpt lat="43.40964" lon="6.5344">
        <ele>185.67</ele>
        <time>2017-01-20T09:34:17Z</time>
      </trkpt>
      <trkpt lat="43.40962" lon="6.53425">
        <ele>185.19</ele>
        <time>2017-01-20T09:34:32Z</time>
      </trkpt>
      <trkpt lat="43.40963" lon="6.53422">
        <ele>185.19</ele>
        <time>2017-01-20T09:34:37Z</time>
      </trkpt>
      <trkpt lat="43.40963" lon="6.53417">
        <ele>185.19</ele>
        <time>2017-01-20T09:34:41Z</time>
      </trkpt>
      <trkpt lat="43.40962" lon="6.53409">
        <ele>184.71</ele>
        <time>2017-01-20T09:34:45Z</time>
      </trkpt>
      <trkpt lat="43.40962" lon="6.53399">
        <ele>184.71</ele>
        <time>2017-01-20T09:34:50Z</time>
      </trkpt>
      <trkpt lat="43.40958" lon="6.53376">
        <ele>184.71</ele>
        <time>2017-01-20T09:35:03Z</time>
      </trkpt>
      <trkpt lat="43.40957" lon="6.53366">
        <ele>184.71</ele>
        <time>2017-01-20T09:35:07Z</time>
      </trkpt>
      <trkpt lat="43.40957" lon="6.53358">
        <ele>185.19</ele>
        <time>2017-01-20T09:35:10Z</time>
      </trkpt>
      <trkpt lat="43.40953" lon="6.53343">
        <ele>186.15</ele>
        <time>2017-01-20T09:35:19Z</time>
      </trkpt>
      <trkpt lat="43.40953" lon="6.53338">
        <ele>186.15</ele>
        <time>2017-01-20T09:35:22Z</time>
      </trkpt>
      <trkpt lat="43.40953" lon="6.5332">
        <ele>186.15</ele>
        <time>2017-01-20T09:35:33Z</time>
      </trkpt>
      <trkpt lat="43.40958" lon="6.533">
        <ele>186.15</ele>
        <time>2017-01-20T09:35:42Z</time>
      </trkpt>
      <trkpt lat="43.4096" lon="6.53293">
        <ele>185.67</ele>
        <time>2017-01-20T09:35:46Z</time>
      </trkpt>
      <trkpt lat="43.40963" lon="6.53261">
        <ele>185.67</ele>
        <time>2017-01-20T09:36:02Z</time>
      </trkpt>
      <trkpt lat="43.40963" lon="6.53249">
        <ele>184.71</ele>
        <time>2017-01-20T09:36:08Z</time>
      </trkpt>
      <trkpt lat="43.40963" lon="6.53228">
        <ele>184.71</ele>
        <time>2017-01-20T09:36:19Z</time>
      </trkpt>
      <trkpt lat="43.40963" lon="6.53225">
        <ele>184.71</ele>
        <time>2017-01-20T09:36:21Z</time>
      </trkpt>
      <trkpt lat="43.40962" lon="6.53214">
        <ele>184.23</ele>
        <time>2017-01-20T09:36:26Z</time>
      </trkpt>
      <trkpt lat="43.40962" lon="6.53205">
        <ele>184.23</ele>
        <time>2017-01-20T09:36:30Z</time>
      </trkpt>
      <trkpt lat="43.40961" lon="6.53195">
        <ele>183.75</ele>
        <time>2017-01-20T09:36:36Z</time>
      </trkpt>
      <trkpt lat="43.40947" lon="6.53176">
        <ele>184.23</ele>
        <time>2017-01-20T09:36:51Z</time>
      </trkpt>
      <trkpt lat="43.40928" lon="6.53175">
        <ele>183.75</ele>
        <time>2017-01-20T09:37:03Z</time>
      </trkpt>
      <trkpt lat="43.40912" lon="6.53179">
        <ele>183.27</ele>
        <time>2017-01-20T09:37:14Z</time>
      </trkpt>
      <trkpt lat="43.40893" lon="6.5319">
        <ele>184.71</ele>
        <time>2017-01-20T09:37:28Z</time>
      </trkpt>
      <trkpt lat="43.40883" lon="6.53197">
        <ele>187.59</ele>
        <time>2017-01-20T09:37:36Z</time>
      </trkpt>
      <trkpt lat="43.40879" lon="6.53199">
        <ele>184.71</ele>
        <time>2017-01-20T09:37:39Z</time>
      </trkpt>
      <trkpt lat="43.40862" lon="6.53207">
        <ele>185.19</ele>
        <time>2017-01-20T09:37:52Z</time>
      </trkpt>
      <trkpt lat="43.40851" lon="6.5322">
        <ele>184.23</ele>
        <time>2017-01-20T09:38:04Z</time>
      </trkpt>
      <trkpt lat="43.40847" lon="6.53227">
        <ele>183.75</ele>
        <time>2017-01-20T09:38:09Z</time>
      </trkpt>
      <trkpt lat="43.4084" lon="6.53241">
        <ele>184.23</ele>
        <time>2017-01-20T09:38:18Z</time>
      </trkpt>
      <trkpt lat="43.40836" lon="6.53248">
        <ele>184.23</ele>
        <time>2017-01-20T09:38:29Z</time>
      </trkpt>
      <trkpt lat="43.40833" lon="6.53258">
        <ele>184.23</ele>
        <time>2017-01-20T09:38:39Z</time>
      </trkpt>
      <trkpt lat="43.40831" lon="6.53264">
        <ele>184.71</ele>
        <time>2017-01-20T09:38:47Z</time>
      </trkpt>
      <trkpt lat="43.40821" lon="6.53273">
        <ele>185.19</ele>
        <time>2017-01-20T09:38:58Z</time>
      </trkpt>
      <trkpt lat="43.40807" lon="6.53287">
        <ele>185.67</ele>
        <time>2017-01-20T09:39:10Z</time>
      </trkpt>
      <trkpt lat="43.40796" lon="6.53298">
        <ele>186.15</ele>
        <time>2017-01-20T09:39:19Z</time>
      </trkpt>
      <trkpt lat="43.40783" lon="6.53301">
        <ele>187.11</ele>
        <time>2017-01-20T09:39:27Z</time>
      </trkpt>
      <trkpt lat="43.40778" lon="6.533">
        <ele>187.59</ele>
        <time>2017-01-20T09:39:33Z</time>
      </trkpt>
      <trkpt lat="43.40767" lon="6.53294">
        <ele>187.59</ele>
        <time>2017-01-20T09:39:44Z</time>
      </trkpt>
      <trkpt lat="43.4075" lon="6.53296">
        <ele>186.63</ele>
        <time>2017-01-20T09:39:57Z</time>
      </trkpt>
      <trkpt lat="43.40728" lon="6.5329">
        <ele>186.15</ele>
        <time>2017-01-20T09:40:11Z</time>
      </trkpt>
      <trkpt lat="43.40703" lon="6.53291">
        <ele>186.15</ele>
        <time>2017-01-20T09:40:22Z</time>
      </trkpt>
      <trkpt lat="43.40677" lon="6.53305">
        <ele>186.15</ele>
        <time>2017-01-20T09:40:33Z</time>
      </trkpt>
      <trkpt lat="43.40665" lon="6.53331">
        <ele>186.63</ele>
        <time>2017-01-20T09:40:44Z</time>
      </trkpt>
      <trkpt lat="43.4066" lon="6.53341">
        <ele>186.63</ele>
        <time>2017-01-20T09:40:49Z</time>
      </trkpt>
      <trkpt lat="43.40658" lon="6.53346">
        <ele>187.11</ele>
        <time>2017-01-20T09:40:51Z</time>
      </trkpt>
      <trkpt lat="43.40644" lon="6.53335">
        <ele>187.11</ele>
        <time>2017-01-20T09:41:01Z</time>
      </trkpt>
      <trkpt lat="43.40639" lon="6.53316">
        <ele>186.15</ele>
        <time>2017-01-20T09:41:10Z</time>
      </trkpt>
      <trkpt lat="43.4064" lon="6.53293">
        <ele>186.15</ele>
        <time>2017-01-20T09:41:21Z</time>
      </trkpt>
      <trkpt lat="43.4064" lon="6.53285">
        <ele>185.67</ele>
        <time>2017-01-20T09:41:27Z</time>
      </trkpt>
      <trkpt lat="43.40639" lon="6.53273">
        <ele>185.67</ele>
        <time>2017-01-20T09:41:34Z</time>
      </trkpt>
      <trkpt lat="43.4064" lon="6.53267">
        <ele>185.19</ele>
        <time>2017-01-20T09:41:36Z</time>
      </trkpt>
      <trkpt lat="43.40637" lon="6.53243">
        <ele>184.23</ele>
        <time>2017-01-20T09:41:49Z</time>
      </trkpt>
      <trkpt lat="43.40637" lon="6.53237">
        <ele>184.23</ele>
        <time>2017-01-20T09:41:51Z</time>
      </trkpt>
      <trkpt lat="43.40643" lon="6.53202">
        <ele>184.71</ele>
        <time>2017-01-20T09:42:03Z</time>
      </trkpt>
      <trkpt lat="43.40651" lon="6.53175">
        <ele>184.23</ele>
        <time>2017-01-20T09:42:17Z</time>
      </trkpt>
      <trkpt lat="43.40656" lon="6.53143">
        <ele>182.79</ele>
        <time>2017-01-20T09:42:34Z</time>
      </trkpt>
      <trkpt lat="43.4066" lon="6.53127">
        <ele>180.38</ele>
        <time>2017-01-20T09:42:45Z</time>
      </trkpt>
      <trkpt lat="43.40663" lon="6.53124">
        <ele>180.38</ele>
        <time>2017-01-20T09:42:49Z</time>
      </trkpt>
      <trkpt lat="43.40671" lon="6.53115">
        <ele>178.46</ele>
        <time>2017-01-20T09:43:02Z</time>
      </trkpt>
      <trkpt lat="43.40687" lon="6.5309">
        <ele>175.1</ele>
        <time>2017-01-20T09:43:22Z</time>
      </trkpt>
      <trkpt lat="43.40697" lon="6.5307">
        <ele>172.21</ele>
        <time>2017-01-20T09:43:35Z</time>
      </trkpt>
      <trkpt lat="43.40706" lon="6.53046">
        <ele>169.33</ele>
        <time>2017-01-20T09:43:49Z</time>
      </trkpt>
      <trkpt lat="43.40718" lon="6.53017">
        <ele>165.96</ele>
        <time>2017-01-20T09:44:06Z</time>
      </trkpt>
      <trkpt lat="43.40725" lon="6.52999">
        <ele>163.08</ele>
        <time>2017-01-20T09:44:18Z</time>
      </trkpt>
      <trkpt lat="43.40732" lon="6.52983">
        <ele>161.16</ele>
        <time>2017-01-20T09:44:33Z</time>
      </trkpt>
      <trkpt lat="43.40735" lon="6.52977">
        <ele>160.68</ele>
        <time>2017-01-20T09:44:38Z</time>
      </trkpt>
      <trkpt lat="43.40736" lon="6.52974">
        <ele>160.2</ele>
        <time>2017-01-20T09:44:40Z</time>
      </trkpt>
      <trkpt lat="43.40746" lon="6.52958">
        <ele>156.83</ele>
        <time>2017-01-20T09:44:52Z</time>
      </trkpt>
      <trkpt lat="43.4076" lon="6.52939">
        <ele>153.47</ele>
        <time>2017-01-20T09:45:08Z</time>
      </trkpt>
      <trkpt lat="43.40766" lon="6.52926">
        <ele>151.54</ele>
        <time>2017-01-20T09:45:18Z</time>
      </trkpt>
      <trkpt lat="43.40772" lon="6.52915">
        <ele>148.18</ele>
        <time>2017-01-20T09:45:27Z</time>
      </trkpt>
      <trkpt lat="43.40779" lon="6.52907">
        <ele>144.82</ele>
        <time>2017-01-20T09:45:38Z</time>
      </trkpt>
      <trkpt lat="43.40782" lon="6.52899">
        <ele>143.85</ele>
        <time>2017-01-20T09:45:46Z</time>
      </trkpt>
      <trkpt lat="43.40787" lon="6.52886">
        <ele>141.93</ele>
        <time>2017-01-20T09:46:01Z</time>
      </trkpt>
      <trkpt lat="43.40787" lon="6.52885">
        <ele>141.45</ele>
        <time>2017-01-20T09:46:02Z</time>
      </trkpt>
      <trkpt lat="43.40787" lon="6.52879">
        <ele>140.01</ele>
        <time>2017-01-20T09:46:06Z</time>
      </trkpt>
      <trkpt lat="43.4079" lon="6.52873">
        <ele>138.09</ele>
        <time>2017-01-20T09:46:17Z</time>
      </trkpt>
      <trkpt lat="43.40792" lon="6.52866">
        <ele>135.68</ele>
        <time>2017-01-20T09:46:27Z</time>
      </trkpt>
      <trkpt lat="43.40795" lon="6.52859">
        <ele>133.76</ele>
        <time>2017-01-20T09:46:37Z</time>
      </trkpt>
      <trkpt lat="43.40803" lon="6.52846">
        <ele>130.4</ele>
        <time>2017-01-20T09:46:44Z</time>
      </trkpt>
      <trkpt lat="43.40804" lon="6.52843">
        <ele>129.92</ele>
        <time>2017-01-20T09:46:52Z</time>
      </trkpt>
      <trkpt lat="43.40805" lon="6.52843">
        <ele>129.92</ele>
        <time>2017-01-20T09:46:59Z</time>
      </trkpt>
      <trkpt lat="43.4081" lon="6.52845">
        <ele>128.47</ele>
        <time>2017-01-20T09:47:16Z</time>
      </trkpt>
      <trkpt lat="43.40817" lon="6.52843">
        <ele>125.11</ele>
        <time>2017-01-20T09:47:33Z</time>
      </trkpt>
      <trkpt lat="43.40827" lon="6.5284">
        <ele>122.71</ele>
        <time>2017-01-20T09:47:45Z</time>
      </trkpt>
      <trkpt lat="43.40834" lon="6.52836">
        <ele>119.34</ele>
        <time>2017-01-20T09:47:55Z</time>
      </trkpt>
      <trkpt lat="43.40836" lon="6.52834">
        <ele>118.38</ele>
        <time>2017-01-20T09:47:59Z</time>
      </trkpt>
      <trkpt lat="43.40841" lon="6.52829">
        <ele>117.42</ele>
        <time>2017-01-20T09:48:04Z</time>
      </trkpt>
      <trkpt lat="43.4085" lon="6.52825">
        <ele>115.98</ele>
        <time>2017-01-20T09:48:13Z</time>
      </trkpt>
      <trkpt lat="43.40859" lon="6.52835">
        <ele>112.61</ele>
        <time>2017-01-20T09:48:25Z</time>
      </trkpt>
      <trkpt lat="43.40862" lon="6.52848">
        <ele>109.25</ele>
        <time>2017-01-20T09:48:38Z</time>
      </trkpt>
      <trkpt lat="43.40866" lon="6.52861">
        <ele>105.4</ele>
        <time>2017-01-20T09:48:48Z</time>
      </trkpt>
      <trkpt lat="43.40871" lon="6.5287">
        <ele>103.96</ele>
        <time>2017-01-20T09:48:56Z</time>
      </trkpt>
      <trkpt lat="43.40875" lon="6.52872">
        <ele>102.52</ele>
        <time>2017-01-20T09:48:59Z</time>
      </trkpt>
      <trkpt lat="43.40886" lon="6.52867">
        <ele>102.52</ele>
        <time>2017-01-20T09:49:09Z</time>
      </trkpt>
      <trkpt lat="43.40889" lon="6.52848">
        <ele>101.56</ele>
        <time>2017-01-20T09:49:24Z</time>
      </trkpt>
      <trkpt lat="43.40889" lon="6.5284">
        <ele>100.6</ele>
        <time>2017-01-20T09:49:29Z</time>
      </trkpt>
      <trkpt lat="43.40888" lon="6.52834">
        <ele>100.11</ele>
        <time>2017-01-20T09:49:33Z</time>
      </trkpt>
      <trkpt lat="43.40889" lon="6.52831">
        <ele>100.11</ele>
        <time>2017-01-20T09:49:35Z</time>
      </trkpt>
      <trkpt lat="43.40888" lon="6.5282">
        <ele>98.67</ele>
        <time>2017-01-20T09:49:42Z</time>
      </trkpt>
      <trkpt lat="43.40886" lon="6.52816">
        <ele>97.71</ele>
        <time>2017-01-20T09:49:45Z</time>
      </trkpt>
      <trkpt lat="43.40886" lon="6.52807">
        <ele>96.27</ele>
        <time>2017-01-20T09:49:50Z</time>
      </trkpt>
      <trkpt lat="43.40886" lon="6.52786">
        <ele>93.87</ele>
        <time>2017-01-20T09:50:04Z</time>
      </trkpt>
      <trkpt lat="43.40886" lon="6.52785">
        <ele>93.39</ele>
        <time>2017-01-20T09:50:05Z</time>
      </trkpt>
      <trkpt lat="43.40887" lon="6.52783">
        <ele>93.87</ele>
        <time>2017-01-20T09:50:17Z</time>
      </trkpt>
      <trkpt lat="43.40887" lon="6.52783">
        <ele>93.39</ele>
        <time>2017-01-20T09:50:22Z</time>
      </trkpt>
      <trkpt lat="43.40887" lon="6.52778">
        <ele>93.39</ele>
        <time>2017-01-20T09:50:26Z</time>
      </trkpt>
      <trkpt lat="43.40886" lon="6.52772">
        <ele>92.9</ele>
        <time>2017-01-20T09:50:30Z</time>
      </trkpt>
      <trkpt lat="43.40886" lon="6.52764">
        <ele>92.42</ele>
        <time>2017-01-20T09:50:37Z</time>
      </trkpt>
      <trkpt lat="43.40886" lon="6.52757">
        <ele>92.42</ele>
        <time>2017-01-20T09:50:41Z</time>
      </trkpt>
      <trkpt lat="43.40886" lon="6.52746">
        <ele>92.9</ele>
        <time>2017-01-20T09:50:47Z</time>
      </trkpt>
      <trkpt lat="43.40898" lon="6.52733">
        <ele>93.39</ele>
        <time>2017-01-20T09:50:59Z</time>
      </trkpt>
      <trkpt lat="43.40907" lon="6.52729">
        <ele>91.94</ele>
        <time>2017-01-20T09:51:10Z</time>
      </trkpt>
      <trkpt lat="43.40907" lon="6.52729">
        <ele>91.94</ele>
        <time>2017-01-20T09:51:13Z</time>
      </trkpt>
      <trkpt lat="43.40918" lon="6.52724">
        <ele>90.5</ele>
        <time>2017-01-20T09:51:23Z</time>
      </trkpt>
      <trkpt lat="43.40923" lon="6.52722">
        <ele>90.02</ele>
        <time>2017-01-20T09:51:27Z</time>
      </trkpt>
      <trkpt lat="43.40939" lon="6.52718">
        <ele>89.06</ele>
        <time>2017-01-20T09:51:41Z</time>
      </trkpt>
      <trkpt lat="43.40941" lon="6.52715">
        <ele>89.06</ele>
        <time>2017-01-20T09:51:44Z</time>
      </trkpt>
      <trkpt lat="43.40955" lon="6.5271">
        <ele>88.58</ele>
        <time>2017-01-20T09:51:54Z</time>
      </trkpt>
      <trkpt lat="43.40971" lon="6.52706">
        <ele>87.62</ele>
        <time>2017-01-20T09:52:08Z</time>
      </trkpt>
      <trkpt lat="43.40979" lon="6.52705">
        <ele>87.14</ele>
        <time>2017-01-20T09:52:14Z</time>
      </trkpt>
      <trkpt lat="43.40994" lon="6.52697">
        <ele>87.14</ele>
        <time>2017-01-20T09:52:28Z</time>
      </trkpt>
      <trkpt lat="43.40997" lon="6.52697">
        <ele>86.66</ele>
        <time>2017-01-20T09:52:38Z</time>
      </trkpt>
      <trkpt lat="43.40998" lon="6.52698">
        <ele>86.18</ele>
        <time>2017-01-20T09:52:40Z</time>
      </trkpt>
      <trkpt lat="43.41016" lon="6.52692">
        <ele>84.73</ele>
        <time>2017-01-20T09:52:54Z</time>
      </trkpt>
      <trkpt lat="43.41023" lon="6.52689">
        <ele>83.29</ele>
        <time>2017-01-20T09:53:06Z</time>
      </trkpt>
      <trkpt lat="43.41023" lon="6.52689">
        <ele>83.29</ele>
        <time>2017-01-20T09:53:15Z</time>
      </trkpt>
      <trkpt lat="43.41033" lon="6.52687">
        <ele>81.85</ele>
        <time>2017-01-20T09:53:29Z</time>
      </trkpt>
      <trkpt lat="43.41034" lon="6.52687">
        <ele>82.33</ele>
        <time>2017-01-20T09:53:32Z</time>
      </trkpt>
      <trkpt lat="43.41039" lon="6.52685">
        <ele>82.81</ele>
        <time>2017-01-20T09:53:44Z</time>
      </trkpt>
      <trkpt lat="43.4104" lon="6.52685">
        <ele>83.29</ele>
        <time>2017-01-20T09:53:45Z</time>
      </trkpt>
      <trkpt lat="43.41057" lon="6.52686">
        <ele>84.25</ele>
        <time>2017-01-20T09:53:59Z</time>
      </trkpt>
      <trkpt lat="43.41074" lon="6.52683">
        <ele>85.21</ele>
        <time>2017-01-20T09:54:13Z</time>
      </trkpt>
      <trkpt lat="43.41075" lon="6.52682">
        <ele>85.21</ele>
        <time>2017-01-20T09:54:14Z</time>
      </trkpt>
      <trkpt lat="43.41087" lon="6.52676">
        <ele>85.69</ele>
        <time>2017-01-20T09:54:22Z</time>
      </trkpt>
      <trkpt lat="43.41098" lon="6.52671">
        <ele>84.73</ele>
        <time>2017-01-20T09:54:30Z</time>
      </trkpt>
      <trkpt lat="43.41113" lon="6.52664">
        <ele>84.73</ele>
        <time>2017-01-20T09:54:41Z</time>
      </trkpt>
      <trkpt lat="43.41126" lon="6.52658">
        <ele>83.29</ele>
        <time>2017-01-20T09:54:50Z</time>
      </trkpt>
      <trkpt lat="43.41139" lon="6.52651">
        <ele>81.85</ele>
        <time>2017-01-20T09:55:00Z</time>
      </trkpt>
      <trkpt lat="43.41141" lon="6.5265">
        <ele>81.85</ele>
        <time>2017-01-20T09:55:02Z</time>
      </trkpt>
      <trkpt lat="43.4116" lon="6.52642">
        <ele>78.97</ele>
        <time>2017-01-20T09:55:17Z</time>
      </trkpt>
      <trkpt lat="43.41163" lon="6.52639">
        <ele>78.48</ele>
        <time>2017-01-20T09:55:31Z</time>
      </trkpt>
      <trkpt lat="43.41166" lon="6.52638">
        <ele>79.45</ele>
        <time>2017-01-20T09:55:34Z</time>
      </trkpt>
      <trkpt lat="43.41168" lon="6.52638">
        <ele>79.45</ele>
        <time>2017-01-20T09:55:36Z</time>
      </trkpt>
      <trkpt lat="43.41186" lon="6.52637">
        <ele>80.41</ele>
        <time>2017-01-20T09:55:49Z</time>
      </trkpt>
      <trkpt lat="43.4121" lon="6.52633">
        <ele>79.93</ele>
        <time>2017-01-20T09:56:05Z</time>
      </trkpt>
      <trkpt lat="43.41233" lon="6.52633">
        <ele>78.48</ele>
        <time>2017-01-20T09:56:20Z</time>
      </trkpt>
      <trkpt lat="43.41254" lon="6.52634">
        <ele>78.48</ele>
        <time>2017-01-20T09:56:35Z</time>
      </trkpt>
      <trkpt lat="43.41275" lon="6.52635">
        <ele>78</ele>
        <time>2017-01-20T09:56:48Z</time>
      </trkpt>
      <trkpt lat="43.4128" lon="6.52635">
        <ele>77.52</ele>
        <time>2017-01-20T09:56:53Z</time>
      </trkpt>
      <trkpt lat="43.41285" lon="6.52637">
        <ele>77.52</ele>
        <time>2017-01-20T09:56:57Z</time>
      </trkpt>
      <trkpt lat="43.41292" lon="6.52635">
        <ele>74.16</ele>
        <time>2017-01-20T09:57:02Z</time>
      </trkpt>
      <trkpt lat="43.41293" lon="6.52634">
        <ele>81.85</ele>
        <time>2017-01-20T09:57:03Z</time>
      </trkpt>
      <trkpt lat="43.41294" lon="6.52633">
        <ele>78.48</ele>
        <time>2017-01-20T09:57:04Z</time>
      </trkpt>
      <trkpt lat="43.41296" lon="6.52632">
        <ele>78.48</ele>
        <time>2017-01-20T09:57:05Z</time>
      </trkpt>
      <trkpt lat="43.41318" lon="6.52622">
        <ele>78.48</ele>
        <time>2017-01-20T09:57:21Z</time>
      </trkpt>
      <trkpt lat="43.41335" lon="6.52625">
        <ele>78.48</ele>
        <time>2017-01-20T09:57:33Z</time>
      </trkpt>
      <trkpt lat="43.41356" lon="6.52631">
        <ele>78.48</ele>
        <time>2017-01-20T09:57:47Z</time>
      </trkpt>
      <trkpt lat="43.41376" lon="6.52641">
        <ele>78.48</ele>
        <time>2017-01-20T09:58:03Z</time>
      </trkpt>
      <trkpt lat="43.41381" lon="6.52643">
        <ele>75.12</ele>
        <time>2017-01-20T09:58:07Z</time>
      </trkpt>
      <trkpt lat="43.41382" lon="6.52644">
        <ele>80.89</ele>
        <time>2017-01-20T09:58:08Z</time>
      </trkpt>
      <trkpt lat="43.41384" lon="6.52643">
        <ele>78</ele>
        <time>2017-01-20T09:58:09Z</time>
      </trkpt>
      <trkpt lat="43.41407" lon="6.52652">
        <ele>78</ele>
        <time>2017-01-20T09:58:25Z</time>
      </trkpt>
      <trkpt lat="43.41415" lon="6.52655">
        <ele>78</ele>
        <time>2017-01-20T09:58:31Z</time>
      </trkpt>
      <trkpt lat="43.41425" lon="6.52658">
        <ele>77.04</ele>
        <time>2017-01-20T09:58:39Z</time>
      </trkpt>
      <trkpt lat="43.41429" lon="6.52659">
        <ele>77.04</ele>
        <time>2017-01-20T09:58:43Z</time>
      </trkpt>
      <trkpt lat="43.41434" lon="6.52662">
        <ele>77.04</ele>
        <time>2017-01-20T09:58:47Z</time>
      </trkpt>
      <trkpt lat="43.4144" lon="6.52664">
        <ele>76.56</ele>
        <time>2017-01-20T09:58:51Z</time>
      </trkpt>
      <trkpt lat="43.41448" lon="6.52663">
        <ele>76.56</ele>
        <time>2017-01-20T09:58:58Z</time>
      </trkpt>
      <trkpt lat="43.41461" lon="6.52657">
        <ele>77.04</ele>
        <time>2017-01-20T09:59:08Z</time>
      </trkpt>
      <trkpt lat="43.41466" lon="6.52652">
        <ele>77.52</ele>
        <time>2017-01-20T09:59:12Z</time>
      </trkpt>
      <trkpt lat="43.41484" lon="6.52634">
        <ele>78.97</ele>
        <time>2017-01-20T09:59:28Z</time>
      </trkpt>
      <trkpt lat="43.41505" lon="6.52625">
        <ele>79.45</ele>
        <time>2017-01-20T09:59:44Z</time>
      </trkpt>
      <trkpt lat="43.41526" lon="6.52621">
        <ele>80.89</ele>
        <time>2017-01-20T09:59:57Z</time>
      </trkpt>
      <trkpt lat="43.41532" lon="6.52622">
        <ele>81.37</ele>
        <time>2017-01-20T10:00:01Z</time>
      </trkpt>
      <trkpt lat="43.41547" lon="6.52628">
        <ele>83.29</ele>
        <time>2017-01-20T10:00:13Z</time>
      </trkpt>
      <trkpt lat="43.41565" lon="6.52643">
        <ele>83.77</ele>
        <time>2017-01-20T10:00:27Z</time>
      </trkpt>
      <trkpt lat="43.41582" lon="6.52653">
        <ele>83.77</ele>
        <time>2017-01-20T10:00:40Z</time>
      </trkpt>
      <trkpt lat="43.41595" lon="6.52656">
        <ele>84.25</ele>
        <time>2017-01-20T10:00:49Z</time>
      </trkpt>
      <trkpt lat="43.41601" lon="6.52658">
        <ele>84.73</ele>
        <time>2017-01-20T10:00:53Z</time>
      </trkpt>
      <trkpt lat="43.41618" lon="6.5266">
        <ele>86.66</ele>
        <time>2017-01-20T10:01:04Z</time>
      </trkpt>
      <trkpt lat="43.4163" lon="6.52658">
        <ele>87.14</ele>
        <time>2017-01-20T10:01:13Z</time>
      </trkpt>
      <trkpt lat="43.41634" lon="6.52656">
        <ele>87.14</ele>
        <time>2017-01-20T10:01:16Z</time>
      </trkpt>
      <trkpt lat="43.41636" lon="6.52641">
        <ele>87.14</ele>
        <time>2017-01-20T10:01:28Z</time>
      </trkpt>
      <trkpt lat="43.41641" lon="6.5263">
        <ele>86.18</ele>
        <time>2017-01-20T10:01:39Z</time>
      </trkpt>
      <trkpt lat="43.41662" lon="6.52609">
        <ele>86.66</ele>
        <time>2017-01-20T10:01:57Z</time>
      </trkpt>
      <trkpt lat="43.41679" lon="6.52588">
        <ele>86.66</ele>
        <time>2017-01-20T10:02:10Z</time>
      </trkpt>
      <trkpt lat="43.41694" lon="6.52577">
        <ele>85.69</ele>
        <time>2017-01-20T10:02:22Z</time>
      </trkpt>
      <trkpt lat="43.41707" lon="6.52569">
        <ele>84.73</ele>
        <time>2017-01-20T10:02:33Z</time>
      </trkpt>
      <trkpt lat="43.41727" lon="6.52572">
        <ele>83.29</ele>
        <time>2017-01-20T10:02:48Z</time>
      </trkpt>
      <trkpt lat="43.41747" lon="6.52587">
        <ele>81.85</ele>
        <time>2017-01-20T10:03:04Z</time>
      </trkpt>
      <trkpt lat="43.4176" lon="6.52595">
        <ele>80.41</ele>
        <time>2017-01-20T10:03:13Z</time>
      </trkpt>
      <trkpt lat="43.41778" lon="6.52601">
        <ele>78.97</ele>
        <time>2017-01-20T10:03:27Z</time>
      </trkpt>
      <trkpt lat="43.41792" lon="6.526">
        <ele>77.04</ele>
        <time>2017-01-20T10:03:38Z</time>
      </trkpt>
      <trkpt lat="43.41809" lon="6.52605">
        <ele>73.68</ele>
        <time>2017-01-20T10:03:51Z</time>
      </trkpt>
      <trkpt lat="43.41814" lon="6.52609">
        <ele>72.72</ele>
        <time>2017-01-20T10:03:56Z</time>
      </trkpt>
      <trkpt lat="43.41819" lon="6.5261">
        <ele>71.27</ele>
        <time>2017-01-20T10:04:00Z</time>
      </trkpt>
      <trkpt lat="43.41829" lon="6.52616">
        <ele>69.35</ele>
        <time>2017-01-20T10:04:08Z</time>
      </trkpt>
      <trkpt lat="43.4184" lon="6.52613">
        <ele>68.87</ele>
        <time>2017-01-20T10:04:17Z</time>
      </trkpt>
      <trkpt lat="43.41846" lon="6.52611">
        <ele>68.39</ele>
        <time>2017-01-20T10:04:21Z</time>
      </trkpt>
      <trkpt lat="43.41855" lon="6.52611">
        <ele>67.91</ele>
        <time>2017-01-20T10:04:26Z</time>
      </trkpt>
      <trkpt lat="43.41875" lon="6.52614">
        <ele>65.03</ele>
        <time>2017-01-20T10:04:41Z</time>
      </trkpt>
      <trkpt lat="43.41878" lon="6.52614">
        <ele>64.55</ele>
        <time>2017-01-20T10:04:43Z</time>
      </trkpt>
      <trkpt lat="43.41897" lon="6.52621">
        <ele>63.1</ele>
        <time>2017-01-20T10:04:57Z</time>
      </trkpt>
      <trkpt lat="43.41903" lon="6.52624">
        <ele>63.1</ele>
        <time>2017-01-20T10:05:01Z</time>
      </trkpt>
      <trkpt lat="43.41912" lon="6.52616">
        <ele>62.14</ele>
        <time>2017-01-20T10:05:10Z</time>
      </trkpt>
      <trkpt lat="43.41919" lon="6.52606">
        <ele>61.18</ele>
        <time>2017-01-20T10:05:17Z</time>
      </trkpt>
      <trkpt lat="43.41938" lon="6.52593">
        <ele>58.78</ele>
        <time>2017-01-20T10:05:30Z</time>
      </trkpt>
      <trkpt lat="43.41944" lon="6.52589">
        <ele>57.82</ele>
        <time>2017-01-20T10:05:36Z</time>
      </trkpt>
      <trkpt lat="43.41956" lon="6.52579">
        <ele>57.34</ele>
        <time>2017-01-20T10:05:46Z</time>
      </trkpt>
      <trkpt lat="43.41963" lon="6.52571">
        <ele>57.34</ele>
        <time>2017-01-20T10:05:51Z</time>
      </trkpt>
      <trkpt lat="43.41979" lon="6.52556">
        <ele>55.89</ele>
        <time>2017-01-20T10:06:04Z</time>
      </trkpt>
      <trkpt lat="43.41981" lon="6.52551">
        <ele>55.89</ele>
        <time>2017-01-20T10:06:08Z</time>
      </trkpt>
      <trkpt lat="43.41983" lon="6.52547">
        <ele>55.41</ele>
        <time>2017-01-20T10:06:10Z</time>
      </trkpt>
      <trkpt lat="43.41988" lon="6.52545">
        <ele>54.93</ele>
        <time>2017-01-20T10:06:14Z</time>
      </trkpt>
      <trkpt lat="43.42001" lon="6.52533">
        <ele>53.97</ele>
        <time>2017-01-20T10:06:25Z</time>
      </trkpt>
      <trkpt lat="43.42006" lon="6.52531">
        <ele>53.97</ele>
        <time>2017-01-20T10:06:29Z</time>
      </trkpt>
      <trkpt lat="43.42015" lon="6.52526">
        <ele>53.97</ele>
        <time>2017-01-20T10:06:36Z</time>
      </trkpt>
      <trkpt lat="43.42017" lon="6.52524">
        <ele>53.97</ele>
        <time>2017-01-20T10:06:38Z</time>
      </trkpt>
      <trkpt lat="43.42019" lon="6.52521">
        <ele>53.97</ele>
        <time>2017-01-20T10:06:40Z</time>
      </trkpt>
      <trkpt lat="43.4202" lon="6.52519">
        <ele>53.49</ele>
        <time>2017-01-20T10:06:42Z</time>
      </trkpt>
      <trkpt lat="43.42028" lon="6.52515">
        <ele>53.49</ele>
        <time>2017-01-20T10:06:49Z</time>
      </trkpt>
      <trkpt lat="43.42034" lon="6.52511">
        <ele>53.49</ele>
        <time>2017-01-20T10:06:54Z</time>
      </trkpt>
      <trkpt lat="43.42047" lon="6.5251">
        <ele>53.49</ele>
        <time>2017-01-20T10:07:03Z</time>
      </trkpt>
      <trkpt lat="43.42059" lon="6.52507">
        <ele>53.01</ele>
        <time>2017-01-20T10:07:11Z</time>
      </trkpt>
      <trkpt lat="43.42074" lon="6.52504">
        <ele>52.53</ele>
        <time>2017-01-20T10:07:20Z</time>
      </trkpt>
      <trkpt lat="43.4208" lon="6.52503">
        <ele>52.05</ele>
        <time>2017-01-20T10:07:23Z</time>
      </trkpt>
      <trkpt lat="43.42088" lon="6.52501">
        <ele>52.05</ele>
        <time>2017-01-20T10:07:28Z</time>
      </trkpt>
      <trkpt lat="43.42112" lon="6.52497">
        <ele>49.65</ele>
        <time>2017-01-20T10:07:42Z</time>
      </trkpt>
      <trkpt lat="43.42135" lon="6.52489">
        <ele>48.2</ele>
        <time>2017-01-20T10:07:57Z</time>
      </trkpt>
      <trkpt lat="43.42149" lon="6.52484">
        <ele>46.76</ele>
        <time>2017-01-20T10:08:08Z</time>
      </trkpt>
      <trkpt lat="43.42163" lon="6.52477">
        <ele>46.28</ele>
        <time>2017-01-20T10:08:18Z</time>
      </trkpt>
      <trkpt lat="43.42179" lon="6.5247">
        <ele>46.28</ele>
        <time>2017-01-20T10:08:29Z</time>
      </trkpt>
      <trkpt lat="43.42185" lon="6.52466">
        <ele>45.8</ele>
        <time>2017-01-20T10:08:34Z</time>
      </trkpt>
      <trkpt lat="43.42198" lon="6.52456">
        <ele>44.84</ele>
        <time>2017-01-20T10:08:45Z</time>
      </trkpt>
      <trkpt lat="43.42204" lon="6.52455">
        <ele>43.88</ele>
        <time>2017-01-20T10:08:50Z</time>
      </trkpt>
      <trkpt lat="43.4222" lon="6.52458">
        <ele>41.95</ele>
        <time>2017-01-20T10:09:01Z</time>
      </trkpt>
      <trkpt lat="43.42225" lon="6.52461">
        <ele>41.47</ele>
        <time>2017-01-20T10:09:04Z</time>
      </trkpt>
      <trkpt lat="43.42229" lon="6.52464">
        <ele>40.99</ele>
        <time>2017-01-20T10:09:08Z</time>
      </trkpt>
      <trkpt lat="43.42234" lon="6.52467">
        <ele>39.55</ele>
        <time>2017-01-20T10:09:20Z</time>
      </trkpt>
      <trkpt lat="43.42241" lon="6.5247">
        <ele>40.03</ele>
        <time>2017-01-20T10:09:26Z</time>
      </trkpt>
      <trkpt lat="43.42243" lon="6.5247">
        <ele>40.51</ele>
        <time>2017-01-20T10:09:28Z</time>
      </trkpt>
      <trkpt lat="43.42259" lon="6.52479">
        <ele>40.99</ele>
        <time>2017-01-20T10:09:39Z</time>
      </trkpt>
      <trkpt lat="43.42268" lon="6.52484">
        <ele>40.99</ele>
        <time>2017-01-20T10:09:46Z</time>
      </trkpt>
      <trkpt lat="43.42284" lon="6.52502">
        <ele>40.99</ele>
        <time>2017-01-20T10:10:00Z</time>
      </trkpt>
      <trkpt lat="43.42299" lon="6.5252">
        <ele>41.95</ele>
        <time>2017-01-20T10:10:13Z</time>
      </trkpt>
      <trkpt lat="43.42315" lon="6.52538">
        <ele>41.47</ele>
        <time>2017-01-20T10:10:26Z</time>
      </trkpt>
      <trkpt lat="43.42329" lon="6.52545">
        <ele>40.51</ele>
        <time>2017-01-20T10:10:36Z</time>
      </trkpt>
      <trkpt lat="43.42337" lon="6.52549">
        <ele>40.51</ele>
        <time>2017-01-20T10:10:41Z</time>
      </trkpt>
      <trkpt lat="43.42356" lon="6.52561">
        <ele>38.59</ele>
        <time>2017-01-20T10:10:56Z</time>
      </trkpt>
      <trkpt lat="43.4236" lon="6.52564">
        <ele>38.11</ele>
        <time>2017-01-20T10:11:09Z</time>
      </trkpt>
      <trkpt lat="43.4236" lon="6.52564">
        <ele>38.11</ele>
        <time>2017-01-20T10:11:10Z</time>
      </trkpt>
      <trkpt lat="43.42368" lon="6.52567">
        <ele>38.59</ele>
        <time>2017-01-20T10:11:15Z</time>
      </trkpt>
      <trkpt lat="43.42389" lon="6.52573">
        <ele>38.59</ele>
        <time>2017-01-20T10:11:29Z</time>
      </trkpt>
      <trkpt lat="43.4241" lon="6.52575">
        <ele>39.07</ele>
        <time>2017-01-20T10:11:42Z</time>
      </trkpt>
      <trkpt lat="43.42424" lon="6.52575">
        <ele>39.07</ele>
        <time>2017-01-20T10:11:52Z</time>
      </trkpt>
      <trkpt lat="43.42433" lon="6.52576">
        <ele>38.11</ele>
        <time>2017-01-20T10:11:59Z</time>
      </trkpt>
      <trkpt lat="43.42455" lon="6.52569">
        <ele>37.15</ele>
        <time>2017-01-20T10:12:14Z</time>
      </trkpt>
      <trkpt lat="43.42475" lon="6.52556">
        <ele>36.19</ele>
        <time>2017-01-20T10:12:28Z</time>
      </trkpt>
      <trkpt lat="43.42496" lon="6.52544">
        <ele>35.71</ele>
        <time>2017-01-20T10:12:43Z</time>
      </trkpt>
      <trkpt lat="43.425" lon="6.52542">
        <ele>35.71</ele>
        <time>2017-01-20T10:12:45Z</time>
      </trkpt>
      <trkpt lat="43.42504" lon="6.5254">
        <ele>35.71</ele>
        <time>2017-01-20T10:12:50Z</time>
      </trkpt>
      <trkpt lat="43.4252" lon="6.52533">
        <ele>35.71</ele>
        <time>2017-01-20T10:13:01Z</time>
      </trkpt>
      <trkpt lat="43.42524" lon="6.52532">
        <ele>35.71</ele>
        <time>2017-01-20T10:13:05Z</time>
      </trkpt>
      <trkpt lat="43.42528" lon="6.52531">
        <ele>35.23</ele>
        <time>2017-01-20T10:13:09Z</time>
      </trkpt>
      <trkpt lat="43.4253" lon="6.52532">
        <ele>35.23</ele>
        <time>2017-01-20T10:13:11Z</time>
      </trkpt>
      <trkpt lat="43.4254" lon="6.52535">
        <ele>34.74</ele>
        <time>2017-01-20T10:13:18Z</time>
      </trkpt>
      <trkpt lat="43.42553" lon="6.52542">
        <ele>34.26</ele>
        <time>2017-01-20T10:13:27Z</time>
      </trkpt>
      <trkpt lat="43.42574" lon="6.52552">
        <ele>35.23</ele>
        <time>2017-01-20T10:13:42Z</time>
      </trkpt>
      <trkpt lat="43.42594" lon="6.52558">
        <ele>35.71</ele>
        <time>2017-01-20T10:13:54Z</time>
      </trkpt>
      <trkpt lat="43.42607" lon="6.52561">
        <ele>34.74</ele>
        <time>2017-01-20T10:14:03Z</time>
      </trkpt>
      <trkpt lat="43.42622" lon="6.52556">
        <ele>34.26</ele>
        <time>2017-01-20T10:14:12Z</time>
      </trkpt>
      <trkpt lat="43.42637" lon="6.52546">
        <ele>33.78</ele>
        <time>2017-01-20T10:14:22Z</time>
      </trkpt>
      <trkpt lat="43.42645" lon="6.52538">
        <ele>33.3</ele>
        <time>2017-01-20T10:14:29Z</time>
      </trkpt>
      <trkpt lat="43.42649" lon="6.52533">
        <ele>32.82</ele>
        <time>2017-01-20T10:14:33Z</time>
      </trkpt>
      <trkpt lat="43.42651" lon="6.5253">
        <ele>32.34</ele>
        <time>2017-01-20T10:14:35Z</time>
      </trkpt>
      <trkpt lat="43.42663" lon="6.52515">
        <ele>31.38</ele>
        <time>2017-01-20T10:14:46Z</time>
      </trkpt>
      <trkpt lat="43.42665" lon="6.5251">
        <ele>30.9</ele>
        <time>2017-01-20T10:14:49Z</time>
      </trkpt>
      <trkpt lat="43.42673" lon="6.52486">
        <ele>29.94</ele>
        <time>2017-01-20T10:15:01Z</time>
      </trkpt>
      <trkpt lat="43.42679" lon="6.52468">
        <ele>29.46</ele>
        <time>2017-01-20T10:15:10Z</time>
      </trkpt>
      <trkpt lat="43.42681" lon="6.52456">
        <ele>28.5</ele>
        <time>2017-01-20T10:15:15Z</time>
      </trkpt>
      <trkpt lat="43.42695" lon="6.52445">
        <ele>27.05</ele>
        <time>2017-01-20T10:15:27Z</time>
      </trkpt>
      <trkpt lat="43.42715" lon="6.52431">
        <ele>27.53</ele>
        <time>2017-01-20T10:15:43Z</time>
      </trkpt>
      <trkpt lat="43.42738" lon="6.52434">
        <ele>25.61</ele>
        <time>2017-01-20T10:15:57Z</time>
      </trkpt>
      <trkpt lat="43.42756" lon="6.5243">
        <ele>26.09</ele>
        <time>2017-01-20T10:16:10Z</time>
      </trkpt>
      <trkpt lat="43.42776" lon="6.52424">
        <ele>25.61</ele>
        <time>2017-01-20T10:16:25Z</time>
      </trkpt>
      <trkpt lat="43.42777" lon="6.52422">
        <ele>25.61</ele>
        <time>2017-01-20T10:16:26Z</time>
      </trkpt>
      <trkpt lat="43.42787" lon="6.52416">
        <ele>25.61</ele>
        <time>2017-01-20T10:16:33Z</time>
      </trkpt>
      <trkpt lat="43.42792" lon="6.52411">
        <ele>25.61</ele>
        <time>2017-01-20T10:16:37Z</time>
      </trkpt>
      <trkpt lat="43.42795" lon="6.52404">
        <ele>25.61</ele>
        <time>2017-01-20T10:16:41Z</time>
      </trkpt>
      <trkpt lat="43.42801" lon="6.5239">
        <ele>25.13</ele>
        <time>2017-01-20T10:16:49Z</time>
      </trkpt>
      <trkpt lat="43.42805" lon="6.52381">
        <ele>24.65</ele>
        <time>2017-01-20T10:16:54Z</time>
      </trkpt>
      <trkpt lat="43.4281" lon="6.52372">
        <ele>24.17</ele>
        <time>2017-01-20T10:16:59Z</time>
      </trkpt>
      <trkpt lat="43.42817" lon="6.52364">
        <ele>24.65</ele>
        <time>2017-01-20T10:17:05Z</time>
      </trkpt>
      <trkpt lat="43.42836" lon="6.52356">
        <ele>23.69</ele>
        <time>2017-01-20T10:17:17Z</time>
      </trkpt>
      <trkpt lat="43.42843" lon="6.52352">
        <ele>24.17</ele>
        <time>2017-01-20T10:17:22Z</time>
      </trkpt>
      <trkpt lat="43.42862" lon="6.52343">
        <ele>23.69</ele>
        <time>2017-01-20T10:17:36Z</time>
      </trkpt>
      <trkpt lat="43.4287" lon="6.52338">
        <ele>23.69</ele>
        <time>2017-01-20T10:17:41Z</time>
      </trkpt>
      <trkpt lat="43.42878" lon="6.52335">
        <ele>23.69</ele>
        <time>2017-01-20T10:17:46Z</time>
      </trkpt>
      <trkpt lat="43.42881" lon="6.52333">
        <ele>23.69</ele>
        <time>2017-01-20T10:17:48Z</time>
      </trkpt>
      <trkpt lat="43.42892" lon="6.5232">
        <ele>24.17</ele>
        <time>2017-01-20T10:17:59Z</time>
      </trkpt>
      <trkpt lat="43.42893" lon="6.52319">
        <ele>24.65</ele>
        <time>2017-01-20T10:18:00Z</time>
      </trkpt>
      <trkpt lat="43.42914" lon="6.52319">
        <ele>25.13</ele>
        <time>2017-01-20T10:18:13Z</time>
      </trkpt>
      <trkpt lat="43.42916" lon="6.5232">
        <ele>21.77</ele>
        <time>2017-01-20T10:18:14Z</time>
      </trkpt>
      <trkpt lat="43.42917" lon="6.5232">
        <ele>21.77</ele>
        <time>2017-01-20T10:18:15Z</time>
      </trkpt>
      <trkpt lat="43.42918" lon="6.5232">
        <ele>26.57</ele>
        <time>2017-01-20T10:18:16Z</time>
      </trkpt>
      <trkpt lat="43.42919" lon="6.5232">
        <ele>25.13</ele>
        <time>2017-01-20T10:18:17Z</time>
      </trkpt>
      <trkpt lat="43.42933" lon="6.52317">
        <ele>24.65</ele>
        <time>2017-01-20T10:18:28Z</time>
      </trkpt>
      <trkpt lat="43.42946" lon="6.52303">
        <ele>25.13</ele>
        <time>2017-01-20T10:18:39Z</time>
      </trkpt>
      <trkpt lat="43.42958" lon="6.52285">
        <ele>25.13</ele>
        <time>2017-01-20T10:18:50Z</time>
      </trkpt>
      <trkpt lat="43.42961" lon="6.52283">
        <ele>25.13</ele>
        <time>2017-01-20T10:18:52Z</time>
      </trkpt>
      <trkpt lat="43.42975" lon="6.52258">
        <ele>25.13</ele>
        <time>2017-01-20T10:19:05Z</time>
      </trkpt>
      <trkpt lat="43.42976" lon="6.52255">
        <ele>25.13</ele>
        <time>2017-01-20T10:19:07Z</time>
      </trkpt>
      <trkpt lat="43.42977" lon="6.52254">
        <ele>25.13</ele>
        <time>2017-01-20T10:19:08Z</time>
      </trkpt>
      <trkpt lat="43.42981" lon="6.52239">
        <ele>25.13</ele>
        <time>2017-01-20T10:19:19Z</time>
      </trkpt>
      <trkpt lat="43.42982" lon="6.52238">
        <ele>25.13</ele>
        <time>2017-01-20T10:19:22Z</time>
      </trkpt>
      <trkpt lat="43.42984" lon="6.5223">
        <ele>24.17</ele>
        <time>2017-01-20T10:19:30Z</time>
      </trkpt>
      <trkpt lat="43.42983" lon="6.52222">
        <ele>24.17</ele>
        <time>2017-01-20T10:19:34Z</time>
      </trkpt>
      <trkpt lat="43.42981" lon="6.522">
        <ele>25.13</ele>
        <time>2017-01-20T10:19:45Z</time>
      </trkpt>
      <trkpt lat="43.42976" lon="6.52172">
        <ele>26.09</ele>
        <time>2017-01-20T10:19:54Z</time>
      </trkpt>
      <trkpt lat="43.42974" lon="6.52158">
        <ele>27.53</ele>
        <time>2017-01-20T10:20:00Z</time>
      </trkpt>
      <trkpt lat="43.42972" lon="6.52147">
        <ele>28.02</ele>
        <time>2017-01-20T10:20:04Z</time>
      </trkpt>
      <trkpt lat="43.42967" lon="6.52131">
        <ele>28.02</ele>
        <time>2017-01-20T10:20:09Z</time>
      </trkpt>
      <trkpt lat="43.42964" lon="6.52126">
        <ele>27.53</ele>
        <time>2017-01-20T10:20:11Z</time>
      </trkpt>
      <trkpt lat="43.42961" lon="6.52118">
        <ele>27.05</ele>
        <time>2017-01-20T10:20:15Z</time>
      </trkpt>
      <trkpt lat="43.42952" lon="6.52099">
        <ele>27.05</ele>
        <time>2017-01-20T10:20:23Z</time>
      </trkpt>
      <trkpt lat="43.42949" lon="6.52094">
        <ele>26.57</ele>
        <time>2017-01-20T10:20:27Z</time>
      </trkpt>
      <trkpt lat="43.42945" lon="6.5209">
        <ele>26.09</ele>
        <time>2017-01-20T10:20:31Z</time>
      </trkpt>
      <trkpt lat="43.4294" lon="6.52076">
        <ele>25.61</ele>
        <time>2017-01-20T10:20:39Z</time>
      </trkpt>
      <trkpt lat="43.4294" lon="6.52065">
        <ele>25.13</ele>
        <time>2017-01-20T10:20:43Z</time>
      </trkpt>
      <trkpt lat="43.42937" lon="6.52044">
        <ele>26.09</ele>
        <time>2017-01-20T10:20:54Z</time>
      </trkpt>
      <trkpt lat="43.42934" lon="6.52033">
        <ele>29.94</ele>
        <time>2017-01-20T10:20:59Z</time>
      </trkpt>
      <trkpt lat="43.42933" lon="6.52031">
        <ele>26.09</ele>
        <time>2017-01-20T10:21:00Z</time>
      </trkpt>
      <trkpt lat="43.42923" lon="6.52007">
        <ele>26.57</ele>
        <time>2017-01-20T10:21:12Z</time>
      </trkpt>
      <trkpt lat="43.42915" lon="6.51975">
        <ele>28.5</ele>
        <time>2017-01-20T10:21:27Z</time>
      </trkpt>
      <trkpt lat="43.42906" lon="6.51951">
        <ele>30.42</ele>
        <time>2017-01-20T10:21:42Z</time>
      </trkpt>
      <trkpt lat="43.42903" lon="6.51941">
        <ele>30.9</ele>
        <time>2017-01-20T10:21:50Z</time>
      </trkpt>
      <trkpt lat="43.42892" lon="6.51913">
        <ele>31.86</ele>
        <time>2017-01-20T10:22:04Z</time>
      </trkpt>
      <trkpt lat="43.42888" lon="6.51893">
        <ele>33.3</ele>
        <time>2017-01-20T10:22:16Z</time>
      </trkpt>
      <trkpt lat="43.42888" lon="6.5189">
        <ele>33.3</ele>
        <time>2017-01-20T10:22:18Z</time>
      </trkpt>
      <trkpt lat="43.42886" lon="6.51884">
        <ele>33.3</ele>
        <time>2017-01-20T10:22:21Z</time>
      </trkpt>
      <trkpt lat="43.42883" lon="6.51853">
        <ele>33.78</ele>
        <time>2017-01-20T10:22:35Z</time>
      </trkpt>
      <trkpt lat="43.4288" lon="6.5183">
        <ele>34.74</ele>
        <time>2017-01-20T10:22:47Z</time>
      </trkpt>
      <trkpt lat="43.42878" lon="6.51816">
        <ele>34.26</ele>
        <time>2017-01-20T10:22:56Z</time>
      </trkpt>
      <trkpt lat="43.42876" lon="6.51802">
        <ele>33.78</ele>
        <time>2017-01-20T10:23:04Z</time>
      </trkpt>
      <trkpt lat="43.42873" lon="6.51766">
        <ele>33.3</ele>
        <time>2017-01-20T10:23:19Z</time>
      </trkpt>
      <trkpt lat="43.42873" lon="6.5176">
        <ele>32.82</ele>
        <time>2017-01-20T10:23:23Z</time>
      </trkpt>
      <trkpt lat="43.42872" lon="6.51746">
        <ele>32.82</ele>
        <time>2017-01-20T10:23:31Z</time>
      </trkpt>
      <trkpt lat="43.42871" lon="6.51733">
        <ele>33.3</ele>
        <time>2017-01-20T10:23:39Z</time>
      </trkpt>
      <trkpt lat="43.42868" lon="6.51717">
        <ele>33.3</ele>
        <time>2017-01-20T10:23:46Z</time>
      </trkpt>
      <trkpt lat="43.42861" lon="6.51698">
        <ele>33.3</ele>
        <time>2017-01-20T10:23:59Z</time>
      </trkpt>
      <trkpt lat="43.42855" lon="6.51685">
        <ele>33.78</ele>
        <time>2017-01-20T10:24:06Z</time>
      </trkpt>
      <trkpt lat="43.42851" lon="6.5165">
        <ele>35.71</ele>
        <time>2017-01-20T10:24:19Z</time>
      </trkpt>
      <trkpt lat="43.42852" lon="6.51636">
        <ele>36.19</ele>
        <time>2017-01-20T10:24:25Z</time>
      </trkpt>
      <trkpt lat="43.42859" lon="6.51616">
        <ele>36.19</ele>
        <time>2017-01-20T10:24:37Z</time>
      </trkpt>
      <trkpt lat="43.42876" lon="6.51598">
        <ele>35.71</ele>
        <time>2017-01-20T10:24:51Z</time>
      </trkpt>
      <trkpt lat="43.4288" lon="6.5159">
        <ele>36.19</ele>
        <time>2017-01-20T10:24:56Z</time>
      </trkpt>
      <trkpt lat="43.42884" lon="6.51582">
        <ele>36.67</ele>
        <time>2017-01-20T10:25:01Z</time>
      </trkpt>
      <trkpt lat="43.42894" lon="6.51561">
        <ele>37.15</ele>
        <time>2017-01-20T10:25:12Z</time>
      </trkpt>
      <trkpt lat="43.429" lon="6.51554">
        <ele>37.15</ele>
        <time>2017-01-20T10:25:17Z</time>
      </trkpt>
      <trkpt lat="43.42914" lon="6.51531">
        <ele>38.59</ele>
        <time>2017-01-20T10:25:32Z</time>
      </trkpt>
      <trkpt lat="43.42916" lon="6.51523">
        <ele>38.59</ele>
        <time>2017-01-20T10:25:36Z</time>
      </trkpt>
      <trkpt lat="43.42915" lon="6.51495">
        <ele>40.03</ele>
        <time>2017-01-20T10:25:50Z</time>
      </trkpt>
      <trkpt lat="43.42913" lon="6.51476">
        <ele>40.51</ele>
        <time>2017-01-20T10:25:59Z</time>
      </trkpt>
      <trkpt lat="43.42913" lon="6.51472">
        <ele>40.51</ele>
        <time>2017-01-20T10:26:02Z</time>
      </trkpt>
      <trkpt lat="43.42909" lon="6.51447">
        <ele>41.95</ele>
        <time>2017-01-20T10:26:15Z</time>
      </trkpt>
      <trkpt lat="43.42909" lon="6.51444">
        <ele>42.44</ele>
        <time>2017-01-20T10:26:17Z</time>
      </trkpt>
      <trkpt lat="43.42905" lon="6.51425">
        <ele>42.92</ele>
        <time>2017-01-20T10:26:29Z</time>
      </trkpt>
      <trkpt lat="43.42905" lon="6.51423">
        <ele>42.92</ele>
        <time>2017-01-20T10:26:30Z</time>
      </trkpt>
      <trkpt lat="43.42906" lon="6.51411">
        <ele>42.92</ele>
        <time>2017-01-20T10:26:34Z</time>
      </trkpt>
      <trkpt lat="43.42911" lon="6.51394">
        <ele>42.92</ele>
        <time>2017-01-20T10:26:45Z</time>
      </trkpt>
      <trkpt lat="43.42912" lon="6.51392">
        <ele>42.92</ele>
        <time>2017-01-20T10:26:46Z</time>
      </trkpt>
      <trkpt lat="43.42916" lon="6.51379">
        <ele>42.44</ele>
        <time>2017-01-20T10:26:54Z</time>
      </trkpt>
      <trkpt lat="43.42918" lon="6.51375">
        <ele>42.44</ele>
        <time>2017-01-20T10:26:56Z</time>
      </trkpt>
      <trkpt lat="43.42922" lon="6.51359">
        <ele>42.92</ele>
        <time>2017-01-20T10:27:04Z</time>
      </trkpt>
      <trkpt lat="43.42924" lon="6.51351">
        <ele>42.92</ele>
        <time>2017-01-20T10:27:07Z</time>
      </trkpt>
      <trkpt lat="43.42924" lon="6.51348">
        <ele>42.44</ele>
        <time>2017-01-20T10:27:09Z</time>
      </trkpt>
      <trkpt lat="43.42927" lon="6.51342">
        <ele>42.44</ele>
        <time>2017-01-20T10:27:12Z</time>
      </trkpt>
      <trkpt lat="43.42931" lon="6.51336">
        <ele>42.44</ele>
        <time>2017-01-20T10:27:15Z</time>
      </trkpt>
      <trkpt lat="43.42943" lon="6.51313">
        <ele>41.95</ele>
        <time>2017-01-20T10:27:28Z</time>
      </trkpt>
      <trkpt lat="43.42947" lon="6.51303">
        <ele>42.44</ele>
        <time>2017-01-20T10:27:33Z</time>
      </trkpt>
      <trkpt lat="43.42952" lon="6.51292">
        <ele>41.95</ele>
        <time>2017-01-20T10:27:39Z</time>
      </trkpt>
      <trkpt lat="43.4296" lon="6.51266">
        <ele>43.88</ele>
        <time>2017-01-20T10:27:54Z</time>
      </trkpt>
      <trkpt lat="43.42962" lon="6.51251">
        <ele>44.84</ele>
        <time>2017-01-20T10:28:02Z</time>
      </trkpt>
      <trkpt lat="43.42961" lon="6.51245">
        <ele>44.36</ele>
        <time>2017-01-20T10:28:05Z</time>
      </trkpt>
      <trkpt lat="43.42965" lon="6.51231">
        <ele>44.36</ele>
        <time>2017-01-20T10:28:12Z</time>
      </trkpt>
      <trkpt lat="43.42971" lon="6.51219">
        <ele>43.88</ele>
        <time>2017-01-20T10:28:19Z</time>
      </trkpt>
      <trkpt lat="43.42978" lon="6.51209">
        <ele>43.88</ele>
        <time>2017-01-20T10:28:25Z</time>
      </trkpt>
      <trkpt lat="43.42989" lon="6.51193">
        <ele>43.88</ele>
        <time>2017-01-20T10:28:36Z</time>
      </trkpt>
      <trkpt lat="43.42994" lon="6.5117">
        <ele>43.88</ele>
        <time>2017-01-20T10:28:49Z</time>
      </trkpt>
      <trkpt lat="43.42995" lon="6.5117">
        <ele>42.44</ele>
        <time>2017-01-20T10:29:03Z</time>
      </trkpt>
    </trkseg>
  </trk>
</gpx>